<?xml version="1.0" encoding="UTF-8" standalone="no" ?>
<gpx xmlns="http://www.topografix.com/GPX/1/1" xmlns:xsi="http://www.w3.org/2001/XMLSchema-instance" xsi:schemaLocation="http://www.topografix.com/GPX/1/1 http://www.topografix.com/GPX/1/1/gpx.xsd" version="1.1" creator="VisuGPX - https://www.visugpx.com">
  <metadata>
    <name>JOUR 2 - GR®861 Via Garona (2021)</name>
  </metadata>
  <trk>
    <name><![CDATA[JOUR 2 - GR®861 Via Garona (2021)_1]]></name>
    <trkseg>
      <trkpt lat="43.19083" lon="1.01702">
        <ele>250</ele>
      </trkpt>
      <trkpt lat="43.19103" lon="1.01694">
        <ele>250</ele>
      </trkpt>
      <trkpt lat="43.19137" lon="1.01678">
        <ele>251.5</ele>
      </trkpt>
      <trkpt lat="43.19147" lon="1.0167">
        <ele>252.1</ele>
      </trkpt>
      <trkpt lat="43.19158" lon="1.01649">
        <ele>252.9</ele>
      </trkpt>
      <trkpt lat="43.1916" lon="1.01635">
        <ele>253.7</ele>
      </trkpt>
      <trkpt lat="43.19157" lon="1.01612">
        <ele>254.3</ele>
      </trkpt>
      <trkpt lat="43.19052" lon="1.01173">
        <ele>254.7</ele>
      </trkpt>
      <trkpt lat="43.19015" lon="1.01026">
        <ele>256.7</ele>
      </trkpt>
      <trkpt lat="43.1901" lon="1.01014">
        <ele>258.2</ele>
      </trkpt>
      <trkpt lat="43.19094" lon="1.00976">
        <ele>260.5</ele>
      </trkpt>
      <trkpt lat="43.19107" lon="1.00973">
        <ele>260.8</ele>
      </trkpt>
      <trkpt lat="43.19127" lon="1.00974">
        <ele>260.3</ele>
      </trkpt>
      <trkpt lat="43.19181" lon="1.00987">
        <ele>260</ele>
      </trkpt>
      <trkpt lat="43.19305" lon="1.01059">
        <ele>259.8</ele>
      </trkpt>
      <trkpt lat="43.19363" lon="1.01088">
        <ele>261.1</ele>
      </trkpt>
      <trkpt lat="43.19376" lon="1.01099">
        <ele>261.8</ele>
      </trkpt>
      <trkpt lat="43.1933" lon="1.01235">
        <ele>261.8</ele>
      </trkpt>
      <trkpt lat="43.19304" lon="1.01288">
        <ele>262</ele>
      </trkpt>
      <trkpt lat="43.19285" lon="1.01314">
        <ele>262.2</ele>
      </trkpt>
      <trkpt lat="43.19263" lon="1.01336">
        <ele>261.9</ele>
      </trkpt>
      <trkpt lat="43.19248" lon="1.01359">
        <ele>261.8</ele>
      </trkpt>
      <trkpt lat="43.1924" lon="1.01375">
        <ele>261.4</ele>
      </trkpt>
      <trkpt lat="43.1924" lon="1.01392">
        <ele>261.6</ele>
      </trkpt>
      <trkpt lat="43.19291" lon="1.0151">
        <ele>258.9</ele>
      </trkpt>
      <trkpt lat="43.19339" lon="1.01609">
        <ele>258.9</ele>
      </trkpt>
      <trkpt lat="43.19358" lon="1.01653">
        <ele>258.7</ele>
      </trkpt>
      <trkpt lat="43.19387" lon="1.017">
        <ele>259.4</ele>
      </trkpt>
      <trkpt lat="43.19406" lon="1.01724">
        <ele>259.9</ele>
      </trkpt>
      <trkpt lat="43.19431" lon="1.0175">
        <ele>261</ele>
      </trkpt>
      <trkpt lat="43.19439" lon="1.01762">
        <ele>261</ele>
      </trkpt>
      <trkpt lat="43.19463" lon="1.01807">
        <ele>262.3</ele>
      </trkpt>
      <trkpt lat="43.19472" lon="1.0183">
        <ele>262.1</ele>
      </trkpt>
      <trkpt lat="43.19482" lon="1.01861">
        <ele>262.4</ele>
      </trkpt>
      <trkpt lat="43.19505" lon="1.01916">
        <ele>263.2</ele>
      </trkpt>
      <trkpt lat="43.19549" lon="1.02022">
        <ele>263.7</ele>
      </trkpt>
      <trkpt lat="43.1956" lon="1.02041">
        <ele>264</ele>
      </trkpt>
      <trkpt lat="43.19534" lon="1.02286">
        <ele>262</ele>
      </trkpt>
      <trkpt lat="43.19534" lon="1.02298">
        <ele>262</ele>
      </trkpt>
      <trkpt lat="43.19538" lon="1.02303">
        <ele>262</ele>
      </trkpt>
      <trkpt lat="43.19468" lon="1.02374">
        <ele>260.7</ele>
      </trkpt>
      <trkpt lat="43.19462" lon="1.02384">
        <ele>260</ele>
      </trkpt>
      <trkpt lat="43.19457" lon="1.02397">
        <ele>259.1</ele>
      </trkpt>
      <trkpt lat="43.19455" lon="1.02408">
        <ele>258.3</ele>
      </trkpt>
      <trkpt lat="43.19456" lon="1.02418">
        <ele>258.1</ele>
      </trkpt>
      <trkpt lat="43.19475" lon="1.025">
        <ele>254.6</ele>
      </trkpt>
      <trkpt lat="43.19477" lon="1.02514">
        <ele>254.6</ele>
      </trkpt>
      <trkpt lat="43.19476" lon="1.02528">
        <ele>253.8</ele>
      </trkpt>
      <trkpt lat="43.19472" lon="1.02542">
        <ele>252</ele>
      </trkpt>
      <trkpt lat="43.19431" lon="1.02648">
        <ele>248.7</ele>
      </trkpt>
      <trkpt lat="43.19425" lon="1.02673">
        <ele>249.1</ele>
      </trkpt>
      <trkpt lat="43.19427" lon="1.02721">
        <ele>249.4</ele>
      </trkpt>
      <trkpt lat="43.19454" lon="1.0286">
        <ele>249</ele>
      </trkpt>
      <trkpt lat="43.19453" lon="1.02884">
        <ele>249.3</ele>
      </trkpt>
      <trkpt lat="43.19461" lon="1.02892">
        <ele>249.5</ele>
      </trkpt>
      <trkpt lat="43.19473" lon="1.02927">
        <ele>249</ele>
      </trkpt>
      <trkpt lat="43.19516" lon="1.0309">
        <ele>247.646</ele>
        <time>2020-10-31T21:09:25Z</time>
      </trkpt>
      <trkpt lat="43.19529" lon="1.03127">
        <ele>248.022</ele>
        <time>2020-06-01T22:39:20Z</time>
      </trkpt>
      <trkpt lat="43.19551" lon="1.03165">
        <ele>248.096</ele>
        <time>2020-06-01T22:38:00Z</time>
      </trkpt>
      <trkpt lat="43.19569" lon="1.03207">
        <ele>249.029</ele>
        <time>2020-10-31T21:08:25Z</time>
      </trkpt>
      <trkpt lat="43.1958" lon="1.03251">
        <ele>249.914</ele>
        <time>2020-10-31T21:08:05Z</time>
      </trkpt>
      <trkpt lat="43.19586" lon="1.03283">
        <ele>250.008</ele>
        <time>2020-06-01T22:36:20Z</time>
      </trkpt>
      <trkpt lat="43.19596" lon="1.03312">
        <ele>250.026</ele>
        <time>2020-10-31T21:07:25Z</time>
      </trkpt>
      <trkpt lat="43.19633" lon="1.0335">
        <ele>250.833</ele>
        <time>2020-06-01T22:35:00Z</time>
      </trkpt>
      <trkpt lat="43.19667" lon="1.03386">
        <ele>251.078</ele>
        <time>2020-06-01T22:34:40Z</time>
      </trkpt>
      <trkpt lat="43.19697" lon="1.03421">
        <ele>252.076</ele>
        <time>2020-10-31T21:06:25Z</time>
      </trkpt>
      <trkpt lat="43.19733" lon="1.03476">
        <ele>252.042</ele>
        <time>2020-06-01T22:34:00Z</time>
      </trkpt>
      <trkpt lat="43.19732" lon="1.03485">
        <ele>252.071</ele>
        <time>2020-06-01T22:33:40Z</time>
      </trkpt>
      <trkpt lat="43.19756" lon="1.03509">
        <ele>252.026</ele>
        <time>2020-06-01T22:33:20Z</time>
      </trkpt>
      <trkpt lat="43.1978" lon="1.03523">
        <ele>252.052</ele>
        <time>2020-06-01T22:32:40Z</time>
      </trkpt>
      <trkpt lat="43.19811" lon="1.03533">
        <ele>252.096</ele>
        <time>2020-06-01T22:32:00Z</time>
      </trkpt>
      <trkpt lat="43.19839" lon="1.03548">
        <ele>252.169</ele>
        <time>2020-06-01T22:31:20Z</time>
      </trkpt>
      <trkpt lat="43.19866" lon="1.03566">
        <ele>252.284</ele>
        <time>2020-06-01T22:30:40Z</time>
      </trkpt>
      <trkpt lat="43.19889" lon="1.03581">
        <ele>253.008</ele>
        <time>2020-06-01T22:30:20Z</time>
      </trkpt>
      <trkpt lat="43.19897" lon="1.03585">
        <ele>252.919</ele>
        <time>2020-06-01T22:30:00Z</time>
      </trkpt>
      <trkpt lat="43.19922" lon="1.03593">
        <ele>252.79</ele>
        <time>2020-06-01T22:29:40Z</time>
      </trkpt>
      <trkpt lat="43.1994" lon="1.036">
        <ele>252.976</ele>
        <time>2020-06-01T22:29:20Z</time>
      </trkpt>
      <trkpt lat="43.19975" lon="1.03615">
        <ele>252.941</ele>
        <time>2020-06-01T22:29:00Z</time>
      </trkpt>
      <trkpt lat="43.20005" lon="1.03633">
        <ele>252.237</ele>
        <time>2020-06-01T22:28:00Z</time>
      </trkpt>
      <trkpt lat="43.20037" lon="1.03661">
        <ele>250.946</ele>
        <time>2020-06-01T22:27:40Z</time>
      </trkpt>
      <trkpt lat="43.20059" lon="1.03676">
        <ele>250.291</ele>
        <time>2020-06-01T22:27:20Z</time>
      </trkpt>
      <trkpt lat="43.20087" lon="1.03701">
        <ele>250.997</ele>
        <time>2020-06-01T22:26:40Z</time>
      </trkpt>
      <trkpt lat="43.20149" lon="1.0377">
        <ele>250.911</ele>
        <time>2020-06-01T22:26:20Z</time>
      </trkpt>
      <trkpt lat="43.20176" lon="1.03807">
        <ele>251.324</ele>
        <time>2020-10-31T21:00:25Z</time>
      </trkpt>
      <trkpt lat="43.2021" lon="1.03861">
        <ele>251.169</ele>
        <time>2020-06-01T22:25:40Z</time>
      </trkpt>
      <trkpt lat="43.20243" lon="1.03938">
        <ele>251.008</ele>
        <time>2020-10-31T20:59:45Z</time>
      </trkpt>
      <trkpt lat="43.20257" lon="1.03959">
        <ele>250.708</ele>
        <time>2020-10-31T20:59:25Z</time>
      </trkpt>
      <trkpt lat="43.20273" lon="1.03971">
        <ele>250.962</ele>
        <time>2020-10-31T20:59:05Z</time>
      </trkpt>
      <trkpt lat="43.20304" lon="1.03999">
        <ele>251.022</ele>
        <time>2020-10-31T20:58:45Z</time>
      </trkpt>
      <trkpt lat="43.2038" lon="1.04249">
        <ele>250.042</ele>
        <time>2020-10-31T20:58:25Z</time>
      </trkpt>
      <trkpt lat="43.20442" lon="1.04519">
        <ele>250.058</ele>
        <time>2020-10-31T20:57:45Z</time>
      </trkpt>
      <trkpt lat="43.20608" lon="1.05522">
        <ele>250.977</ele>
        <time>2020-10-31T20:56:45Z</time>
      </trkpt>
      <trkpt lat="43.20624" lon="1.05667">
        <ele>251.012</ele>
        <time>2020-06-01T22:20:00Z</time>
      </trkpt>
      <trkpt lat="43.20628" lon="1.05748">
        <ele>251.028</ele>
        <time>2020-06-01T22:19:20Z</time>
      </trkpt>
      <trkpt lat="43.20612" lon="1.05829">
        <ele>251.092</ele>
        <time>2020-10-31T20:55:25Z</time>
      </trkpt>
      <trkpt lat="43.20592" lon="1.05892">
        <ele>251.065</ele>
        <time>2020-10-31T20:55:05Z</time>
      </trkpt>
      <trkpt lat="43.20542" lon="1.05895">
        <ele>250.61</ele>
        <time>2020-10-31T20:54:25Z</time>
      </trkpt>
      <trkpt lat="43.20486" lon="1.05798">
        <ele>250.008</ele>
        <time>2020-10-31T20:54:05Z</time>
      </trkpt>
      <trkpt lat="43.20456" lon="1.05856">
        <ele>250.015</ele>
        <time>2020-06-01T22:18:00Z</time>
      </trkpt>
      <trkpt lat="43.20436" lon="1.0589">
        <ele>250.023</ele>
        <time>2020-10-31T20:53:25Z</time>
      </trkpt>
      <trkpt lat="43.20401" lon="1.05931">
        <ele>250.033</ele>
        <time>2020-06-01T22:17:40Z</time>
      </trkpt>
      <trkpt lat="43.20343" lon="1.05983">
        <ele>247.315</ele>
        <time>2020-10-31T20:52:45Z</time>
      </trkpt>
      <trkpt lat="43.20302" lon="1.06004">
        <ele>245.051</ele>
        <time>2020-10-31T20:52:25Z</time>
      </trkpt>
      <trkpt lat="43.20292" lon="1.05999">
        <ele>245.01</ele>
        <time>2020-10-31T20:52:05Z</time>
      </trkpt>
      <trkpt lat="43.20267" lon="1.05942">
        <ele>244.765</ele>
        <time>2020-10-31T20:51:45Z</time>
      </trkpt>
      <trkpt lat="43.20234" lon="1.05887">
        <ele>244.551</ele>
        <time>2020-10-31T20:51:25Z</time>
      </trkpt>
      <trkpt lat="43.20216" lon="1.05881">
        <ele>244.255</ele>
        <time>2020-10-31T20:51:05Z</time>
      </trkpt>
      <trkpt lat="43.20075" lon="1.05962">
        <ele>242.418</ele>
        <time>2020-10-31T20:50:45Z</time>
      </trkpt>
      <trkpt lat="43.20068" lon="1.06032">
        <ele>241.413</ele>
        <time>2020-10-31T20:50:25Z</time>
      </trkpt>
      <trkpt lat="43.20077" lon="1.06084">
        <ele>241.808</ele>
        <time>2020-10-31T20:50:05Z</time>
      </trkpt>
      <trkpt lat="43.20049" lon="1.06096">
        <ele>241.016</ele>
        <time>2020-10-31T20:49:45Z</time>
      </trkpt>
      <trkpt lat="43.20037" lon="1.06207">
        <ele>241.306</ele>
        <time>2020-10-31T20:49:25Z</time>
      </trkpt>
      <trkpt lat="43.20039" lon="1.06292">
        <ele>241.064</ele>
        <time>2020-10-31T20:49:05Z</time>
      </trkpt>
      <trkpt lat="43.20058" lon="1.06419">
        <ele>240.167</ele>
        <time>2020-10-31T20:48:45Z</time>
      </trkpt>
      <trkpt lat="43.20085" lon="1.06483">
        <ele>240.133</ele>
        <time>2020-10-31T20:48:25Z</time>
      </trkpt>
      <trkpt lat="43.2014" lon="1.06462">
        <ele>242.022</ele>
        <time>2020-10-31T20:47:45Z</time>
      </trkpt>
      <trkpt lat="43.20227" lon="1.06855">
        <ele>245.817</ele>
        <time>2020-10-31T20:47:25Z</time>
      </trkpt>
      <trkpt lat="43.20177" lon="1.06871">
        <ele>240.563</ele>
        <time>2020-10-31T20:47:05Z</time>
      </trkpt>
      <trkpt lat="43.20196" lon="1.06928">
        <ele>245.197</ele>
        <time>2021-05-14T16:54:02Z</time>
      </trkpt>
      <trkpt lat="43.20202" lon="1.06988">
        <ele>244.68</ele>
        <time>2021-05-14T16:53:42Z</time>
      </trkpt>
      <trkpt lat="43.20176" lon="1.06997">
        <ele>237.385</ele>
        <time>2021-05-14T16:53:22Z</time>
      </trkpt>
      <trkpt lat="43.20177" lon="1.07052">
        <ele>236.608</ele>
        <time>2020-10-31T20:46:45Z</time>
      </trkpt>
      <trkpt lat="43.20271" lon="1.07019">
        <ele>247.017</ele>
        <time>2020-10-31T20:46:25Z</time>
      </trkpt>
      <trkpt lat="43.20281" lon="1.07069">
        <ele>247.161</ele>
        <time>2020-06-01T22:15:20Z</time>
      </trkpt>
      <trkpt lat="43.20334" lon="1.07367">
        <ele>247.081</ele>
        <time>2020-06-01T22:15:00Z</time>
      </trkpt>
      <trkpt lat="43.20278" lon="1.07384">
        <ele>246.044</ele>
        <time>2020-06-01T22:14:40Z</time>
      </trkpt>
      <trkpt lat="43.20215" lon="1.07409">
        <ele>242.41</ele>
        <time>2020-06-01T22:14:20Z</time>
      </trkpt>
      <trkpt lat="43.20209" lon="1.07439">
        <ele>240.539</ele>
        <time>2020-06-01T22:14:00Z</time>
      </trkpt>
      <trkpt lat="43.20202" lon="1.07499">
        <ele>240.694</ele>
        <time>2020-06-01T22:13:40Z</time>
      </trkpt>
      <trkpt lat="43.20204" lon="1.0756">
        <ele>243.19</ele>
        <time>2020-06-01T22:13:20Z</time>
      </trkpt>
      <trkpt lat="43.20215" lon="1.07603">
        <ele>244.774</ele>
        <time>2020-06-01T22:13:00Z</time>
      </trkpt>
      <trkpt lat="43.20251" lon="1.07688">
        <ele>245.097</ele>
        <time>2020-06-01T22:12:40Z</time>
      </trkpt>
      <trkpt lat="43.20269" lon="1.07743">
        <ele>245.062</ele>
        <time>2020-06-01T22:12:20Z</time>
      </trkpt>
      <trkpt lat="43.20164" lon="1.07772">
        <ele>242.408</ele>
        <time>2020-10-31T20:42:45Z</time>
      </trkpt>
      <trkpt lat="43.20154" lon="1.07818">
        <ele>238.214</ele>
        <time>2020-10-31T20:42:25Z</time>
      </trkpt>
      <trkpt lat="43.20165" lon="1.07971">
        <ele>238.759</ele>
        <time>2020-06-01T22:10:40Z</time>
      </trkpt>
      <trkpt lat="43.20142" lon="1.07935">
        <ele>233.256</ele>
        <time>2020-06-01T22:10:20Z</time>
      </trkpt>
      <trkpt lat="43.20114" lon="1.08296">
        <ele>237.95</ele>
        <time>2020-06-01T22:08:40Z</time>
      </trkpt>
      <trkpt lat="43.20153" lon="1.08402">
        <ele>240.586</ele>
        <time>2020-06-01T22:07:00Z</time>
      </trkpt>
      <trkpt lat="43.20226" lon="1.08537">
        <ele>240.075</ele>
        <time>2020-06-01T22:06:40Z</time>
      </trkpt>
      <trkpt lat="43.20252" lon="1.08555">
        <ele>240.04</ele>
        <time>2020-06-01T22:06:20Z</time>
      </trkpt>
      <trkpt lat="43.20288" lon="1.08618">
        <ele>235.516</ele>
        <time>2020-06-01T22:06:00Z</time>
      </trkpt>
      <trkpt lat="43.20406" lon="1.08689">
        <ele>232.89</ele>
        <time>2020-06-01T22:05:40Z</time>
      </trkpt>
      <trkpt lat="43.20463" lon="1.08714">
        <ele>234.313</ele>
        <time>2020-06-01T22:05:20Z</time>
      </trkpt>
      <trkpt lat="43.20553" lon="1.08766">
        <ele>234.828</ele>
        <time>2020-10-31T20:36:25Z</time>
      </trkpt>
      <trkpt lat="43.20586" lon="1.08805">
        <ele>233.808</ele>
        <time>2020-10-31T20:36:05Z</time>
      </trkpt>
      <trkpt lat="43.20606" lon="1.08845">
        <ele>237.711</ele>
        <time>2020-10-31T20:35:45Z</time>
      </trkpt>
      <trkpt lat="43.20634" lon="1.09074">
        <ele>235.665</ele>
        <time>2020-10-31T20:35:25Z</time>
      </trkpt>
      <trkpt lat="43.20671" lon="1.09272">
        <ele>240.015</ele>
        <time>2020-10-31T20:35:05Z</time>
      </trkpt>
      <trkpt lat="43.20657" lon="1.09312">
        <ele>240.035</ele>
        <time>2020-06-01T21:58:00Z</time>
      </trkpt>
      <trkpt lat="43.20614" lon="1.094">
        <ele>239.111</ele>
        <time>2020-06-01T21:57:40Z</time>
      </trkpt>
      <trkpt lat="43.20611" lon="1.09434">
        <ele>239.05</ele>
        <time>2020-06-01T21:57:20Z</time>
      </trkpt>
      <trkpt lat="43.20615" lon="1.09469">
        <ele>238.395</ele>
        <time>2020-06-01T21:57:00Z</time>
      </trkpt>
      <trkpt lat="43.20657" lon="1.09576">
        <ele>238.221</ele>
        <time>2020-10-31T20:33:25Z</time>
      </trkpt>
      <trkpt lat="43.2061" lon="1.09611">
        <ele>237.015</ele>
        <time>2020-10-31T20:33:05Z</time>
      </trkpt>
      <trkpt lat="43.2063" lon="1.09753">
        <ele>236.058</ele>
        <time>2020-10-31T20:32:45Z</time>
      </trkpt>
      <trkpt lat="43.20605" lon="1.09786">
        <ele>235.673</ele>
        <time>2020-10-31T20:32:25Z</time>
      </trkpt>
      <trkpt lat="43.20616" lon="1.09919">
        <ele>235.208</ele>
        <time>2020-10-31T20:32:05Z</time>
      </trkpt>
      <trkpt lat="43.20597" lon="1.09927">
        <ele>235.013</ele>
        <time>2020-10-31T20:31:45Z</time>
      </trkpt>
      <trkpt lat="43.20599" lon="1.09982">
        <ele>235.021</ele>
        <time>2020-10-31T20:31:25Z</time>
      </trkpt>
      <trkpt lat="43.20745" lon="1.0994">
        <ele>238.061</ele>
        <time>2020-10-31T20:31:05Z</time>
      </trkpt>
      <trkpt lat="43.20749" lon="1.10075">
        <ele>238.776</ele>
        <time>2020-06-01T21:55:00Z</time>
      </trkpt>
      <trkpt lat="43.20753" lon="1.10132">
        <ele>239.122</ele>
        <time>2020-06-01T21:54:40Z</time>
      </trkpt>
      <trkpt lat="43.20778" lon="1.10373">
        <ele>239.031</ele>
        <time>2020-06-01T21:54:20Z</time>
      </trkpt>
      <trkpt lat="43.20791" lon="1.10384">
        <ele>239.546</ele>
        <time>2020-06-01T21:54:00Z</time>
      </trkpt>
      <trkpt lat="43.20959" lon="1.1032">
        <ele>241.032</ele>
        <time>2020-10-31T20:29:25Z</time>
      </trkpt>
      <trkpt lat="43.20971" lon="1.10404">
        <ele>241.046</ele>
        <time>2020-06-01T21:53:20Z</time>
      </trkpt>
      <trkpt lat="43.21006" lon="1.10516">
        <ele>240.029</ele>
        <time>2020-06-01T21:53:00Z</time>
      </trkpt>
      <trkpt lat="43.21105" lon="1.1078">
        <ele>239.064</ele>
        <time>2020-06-01T21:52:40Z</time>
      </trkpt>
      <trkpt lat="43.2116" lon="1.1095">
        <ele>237.808</ele>
        <time>2020-06-01T21:52:20Z</time>
      </trkpt>
      <trkpt lat="43.21209" lon="1.11121">
        <ele>238.025</ele>
        <time>2020-06-01T21:52:00Z</time>
      </trkpt>
      <trkpt lat="43.21262" lon="1.1128">
        <ele>237.005</ele>
        <time>2020-06-01T21:51:40Z</time>
      </trkpt>
      <trkpt lat="43.21311" lon="1.11402">
        <ele>237.079</ele>
        <time>2020-06-01T21:51:20Z</time>
      </trkpt>
      <trkpt lat="43.21336" lon="1.11451">
        <ele>236.054</ele>
        <time>2020-06-01T21:51:00Z</time>
      </trkpt>
      <trkpt lat="43.2155" lon="1.11625">
        <ele>235.99</ele>
        <time>2020-06-01T21:50:40Z</time>
      </trkpt>
      <trkpt lat="43.21645" lon="1.11646">
        <ele>236.029</ele>
        <time>2020-06-01T21:50:20Z</time>
      </trkpt>
      <trkpt lat="43.21708" lon="1.11677">
        <ele>236.094</ele>
        <time>2020-06-01T21:50:00Z</time>
      </trkpt>
      <trkpt lat="43.21751" lon="1.11711">
        <ele>235.44</ele>
        <time>2020-06-01T21:49:40Z</time>
      </trkpt>
      <trkpt lat="43.218" lon="1.11765">
        <ele>235.064</ele>
        <time>2020-06-01T21:49:20Z</time>
      </trkpt>
      <trkpt lat="43.2208" lon="1.12136">
        <ele>235.067</ele>
        <time>2020-06-01T21:49:00Z</time>
      </trkpt>
      <trkpt lat="43.22299" lon="1.12425">
        <ele>234.062</ele>
        <time>2020-06-01T21:48:40Z</time>
      </trkpt>
      <trkpt lat="43.22597" lon="1.12819">
        <ele>232.008</ele>
        <time>2020-06-01T21:48:00Z</time>
      </trkpt>
      <trkpt lat="43.22572" lon="1.12946">
        <ele>231.017</ele>
        <time>2020-10-31T20:23:25Z</time>
      </trkpt>
      <trkpt lat="43.22621" lon="1.13003">
        <ele>231.052</ele>
        <time>2020-10-31T20:23:05Z</time>
      </trkpt>
      <trkpt lat="43.22683" lon="1.13054">
        <ele>230.658</ele>
        <time>2020-06-01T21:47:00Z</time>
      </trkpt>
      <trkpt lat="43.23063" lon="1.13553">
        <ele>230.378</ele>
        <time>2020-06-01T21:46:40Z</time>
      </trkpt>
      <trkpt lat="43.23138" lon="1.13656">
        <ele>231.054</ele>
        <time>2020-06-01T21:46:20Z</time>
      </trkpt>
      <trkpt lat="43.23211" lon="1.13788">
        <ele>231.043</ele>
        <time>2020-06-01T21:46:00Z</time>
      </trkpt>
      <trkpt lat="43.2332" lon="1.1405">
        <ele>231.068</ele>
        <time>2020-06-01T21:45:40Z</time>
      </trkpt>
      <trkpt lat="43.2353" lon="1.14564">
        <ele>228.624</ele>
        <time>2020-06-01T21:45:20Z</time>
      </trkpt>
      <trkpt lat="43.23763" lon="1.15129">
        <ele>225.068</ele>
        <time>2020-06-01T21:45:00Z</time>
      </trkpt>
      <trkpt lat="43.23796" lon="1.15107">
        <ele>225.151</ele>
        <time>2020-06-01T21:44:40Z</time>
      </trkpt>
      <trkpt lat="43.23794" lon="1.1506">
        <ele>226.026</ele>
        <time>2020-06-01T21:44:20Z</time>
      </trkpt>
      <trkpt lat="43.23819" lon="1.15028">
        <ele>226.008</ele>
        <time>2020-06-01T21:44:00Z</time>
      </trkpt>
      <trkpt lat="43.2386" lon="1.15008">
        <ele>226.019</ele>
        <time>2020-06-01T21:43:40Z</time>
      </trkpt>
      <trkpt lat="43.24012" lon="1.15094">
        <ele>226.081</ele>
        <time>2020-10-31T20:19:05Z</time>
      </trkpt>
      <trkpt lat="43.24048" lon="1.15133">
        <ele>225.891</ele>
        <time>2020-10-31T20:18:45Z</time>
      </trkpt>
      <trkpt lat="43.24073" lon="1.15152">
        <ele>225.345</ele>
        <time>2020-10-31T20:18:25Z</time>
      </trkpt>
      <trkpt lat="43.24103" lon="1.15169">
        <ele>225.491</ele>
        <time>2020-06-01T21:42:40Z</time>
      </trkpt>
      <trkpt lat="43.24142" lon="1.15167">
        <ele>227.15</ele>
        <time>2020-06-01T21:42:20Z</time>
      </trkpt>
      <trkpt lat="43.24162" lon="1.15115">
        <ele>228.025</ele>
        <time>2020-06-01T21:42:00Z</time>
      </trkpt>
      <trkpt lat="43.24182" lon="1.15132">
        <ele>228.041</ele>
        <time>2020-06-01T21:41:40Z</time>
      </trkpt>
      <trkpt lat="43.24206" lon="1.15146">
        <ele>228.085</ele>
        <time>2020-10-31T20:16:45Z</time>
      </trkpt>
      <trkpt lat="43.24221" lon="1.15133">
        <ele>228.018</ele>
        <time>2020-10-31T20:16:25Z</time>
      </trkpt>
      <trkpt lat="43.24264" lon="1.15173">
        <ele>228.093</ele>
        <time>2020-10-31T20:16:05Z</time>
      </trkpt>
      <trkpt lat="43.24232" lon="1.15246">
        <ele>226.908</ele>
        <time>2020-10-31T20:15:45Z</time>
      </trkpt>
      <trkpt lat="43.24272" lon="1.15291">
        <ele>226.224</ele>
        <time>2020-10-31T20:15:25Z</time>
      </trkpt>
      <trkpt lat="43.24308" lon="1.15219">
        <ele>228.004</ele>
        <time>2020-10-31T20:15:05Z</time>
      </trkpt>
      <trkpt lat="43.2439" lon="1.15314">
        <ele>228.069</ele>
        <time>2020-06-01T21:40:20Z</time>
      </trkpt>
      <trkpt lat="43.24379" lon="1.15378">
        <ele>227.277</ele>
        <time>2020-06-01T21:40:00Z</time>
      </trkpt>
      <trkpt lat="43.24401" lon="1.15426">
        <ele>226.873</ele>
        <time>2020-06-01T21:39:40Z</time>
      </trkpt>
      <trkpt lat="43.24257" lon="1.15591">
        <ele>212.812</ele>
        <time>2021-05-14T16:23:02Z</time>
      </trkpt>
      <trkpt lat="43.24218" lon="1.1561">
        <ele>218.277</ele>
        <time>2020-10-31T20:13:25Z</time>
      </trkpt>
      <trkpt lat="43.24018" lon="1.15903">
        <ele>229.853</ele>
        <time>2020-10-31T20:12:45Z</time>
      </trkpt>
      <trkpt lat="43.24007" lon="1.15991">
        <ele>238.397</ele>
        <time>2020-10-31T20:11:25Z</time>
      </trkpt>
      <trkpt lat="43.24067" lon="1.16193">
        <ele>258.97</ele>
        <time>2020-10-31T20:11:05Z</time>
      </trkpt>
      <trkpt lat="43.24164" lon="1.16319">
        <ele>250.555</ele>
        <time>2020-10-31T20:10:45Z</time>
      </trkpt>
      <trkpt lat="43.24167" lon="1.16364">
        <ele>253.108</ele>
        <time>2020-10-31T20:10:25Z</time>
      </trkpt>
      <trkpt lat="43.24183" lon="1.16419">
        <ele>254.317</ele>
        <time>2020-10-31T20:10:05Z</time>
      </trkpt>
      <trkpt lat="43.24195" lon="1.16417">
        <ele>253.025</ele>
        <time>2020-10-31T20:09:45Z</time>
      </trkpt>
      <trkpt lat="43.24187" lon="1.16377">
        <ele>251.483</ele>
        <time>2020-06-01T21:37:20Z</time>
      </trkpt>
      <trkpt lat="43.24241" lon="1.1636">
        <ele>245.564</ele>
        <time>2020-06-01T21:37:00Z</time>
      </trkpt>
      <trkpt lat="43.24347" lon="1.16475">
        <ele>249.94</ele>
        <time>2020-06-01T21:36:40Z</time>
      </trkpt>
      <trkpt lat="43.24369" lon="1.16523">
        <ele>255.069</ele>
        <time>2020-10-31T20:08:25Z</time>
      </trkpt>
      <trkpt lat="43.24392" lon="1.16545">
        <ele>258.364</ele>
        <time>2020-10-31T20:08:05Z</time>
      </trkpt>
      <trkpt lat="43.24448" lon="1.16564">
        <ele>260.43</ele>
        <time>2020-10-31T20:07:45Z</time>
      </trkpt>
      <trkpt lat="43.24492" lon="1.16586">
        <ele>260.884</ele>
        <time>2020-10-31T20:07:25Z</time>
      </trkpt>
      <trkpt lat="43.24528" lon="1.16615">
        <ele>255.987</ele>
        <time>2020-06-01T21:35:40Z</time>
      </trkpt>
      <trkpt lat="43.24547" lon="1.16677">
        <ele>261.152</ele>
        <time>2020-06-01T21:35:20Z</time>
      </trkpt>
      <trkpt lat="43.24586" lon="1.16723">
        <ele>255.708</ele>
        <time>2020-06-01T21:35:00Z</time>
      </trkpt>
      <trkpt lat="43.2462" lon="1.16794">
        <ele>260.623</ele>
        <time>2020-06-01T21:34:40Z</time>
      </trkpt>
      <trkpt lat="43.24665" lon="1.16845">
        <ele>256.303</ele>
        <time>2020-06-01T21:34:20Z</time>
      </trkpt>
      <trkpt lat="43.24748" lon="1.16954">
        <ele>261.259</ele>
        <time>2020-10-31T20:05:25Z</time>
      </trkpt>
      <trkpt lat="43.24797" lon="1.16993">
        <ele>261.064</ele>
        <time>2020-06-01T21:33:40Z</time>
      </trkpt>
      <trkpt lat="43.24865" lon="1.1699">
        <ele>259.65</ele>
        <time>2020-06-01T21:33:20Z</time>
      </trkpt>
      <trkpt lat="43.2493" lon="1.17106">
        <ele>262.289</ele>
        <time>2020-06-01T21:33:00Z</time>
      </trkpt>
      <trkpt lat="43.24982" lon="1.17173">
        <ele>259.064</ele>
        <time>2020-06-01T21:32:40Z</time>
      </trkpt>
      <trkpt lat="43.24976" lon="1.17229">
        <ele>255.71</ele>
        <time>2020-06-01T21:32:20Z</time>
      </trkpt>
      <trkpt lat="43.25023" lon="1.17333">
        <ele>250.084</ele>
        <time>2020-10-31T20:03:25Z</time>
      </trkpt>
      <trkpt lat="43.25082" lon="1.17402">
        <ele>246.567</ele>
        <time>2020-10-31T20:03:05Z</time>
      </trkpt>
      <trkpt lat="43.25219" lon="1.17541">
        <ele>243.412</ele>
        <time>2020-06-01T21:31:20Z</time>
      </trkpt>
      <trkpt lat="43.25242" lon="1.17547">
        <ele>243.308</ele>
        <time>2020-06-01T21:31:00Z</time>
      </trkpt>
      <trkpt lat="43.25273" lon="1.17576">
        <ele>242.32</ele>
        <time>2020-06-01T21:30:40Z</time>
      </trkpt>
      <trkpt lat="43.25363" lon="1.17757">
        <ele>238.1</ele>
        <time>2020-10-31T20:01:45Z</time>
      </trkpt>
      <trkpt lat="43.25464" lon="1.1793">
        <ele>235.557</ele>
        <time>2020-06-01T21:30:20Z</time>
      </trkpt>
      <trkpt lat="43.25577" lon="1.18118">
        <ele>234.014</ele>
        <time>2020-06-01T21:30:00Z</time>
      </trkpt>
      <trkpt lat="43.25614" lon="1.18154">
        <ele>233.95</ele>
        <time>2020-06-01T21:29:40Z</time>
      </trkpt>
      <trkpt lat="43.25689" lon="1.18195">
        <ele>233.029</ele>
        <time>2020-06-01T21:29:20Z</time>
      </trkpt>
      <trkpt lat="43.25701" lon="1.18222">
        <ele>232.894</ele>
        <time>2020-06-01T21:29:00Z</time>
      </trkpt>
      <trkpt lat="43.25707" lon="1.18424">
        <ele>230.05</ele>
        <time>2020-06-01T21:28:40Z</time>
      </trkpt>
      <trkpt lat="43.2576" lon="1.1864">
        <ele>228.694</ele>
        <time>2020-06-01T21:28:20Z</time>
      </trkpt>
      <trkpt lat="43.25774" lon="1.18804">
        <ele>226.127</ele>
        <time>2020-06-01T21:28:00Z</time>
      </trkpt>
      <trkpt lat="43.25802" lon="1.18968">
        <ele>224.142</ele>
        <time>2020-06-01T21:27:00Z</time>
      </trkpt>
      <trkpt lat="43.25837" lon="1.19039">
        <ele>223.108</ele>
        <time>2020-06-01T21:26:40Z</time>
      </trkpt>
      <trkpt lat="43.25839" lon="1.19127">
        <ele>221.62</ele>
        <time>2020-06-01T21:26:20Z</time>
      </trkpt>
      <trkpt lat="43.25814" lon="1.19216">
        <ele>220</ele>
        <time>2020-06-01T21:26:00Z</time>
      </trkpt>
      <trkpt lat="43.25813" lon="1.19258">
        <ele>219.557</ele>
        <time>2020-06-01T21:25:40Z</time>
      </trkpt>
      <trkpt lat="43.25824" lon="1.19379">
        <ele>217.134</ele>
        <time>2020-06-01T21:25:20Z</time>
      </trkpt>
      <trkpt lat="43.25823" lon="1.19446">
        <ele>216.37</ele>
        <time>2020-06-01T21:25:00Z</time>
      </trkpt>
      <trkpt lat="43.25818" lon="1.19469">
        <ele>215.769</ele>
        <time>2020-10-31T19:55:45Z</time>
      </trkpt>
      <trkpt lat="43.25765" lon="1.19457">
        <ele>217.094</ele>
        <time>2020-10-31T19:55:25Z</time>
      </trkpt>
      <trkpt lat="43.2572" lon="1.19614">
        <ele>216.09</ele>
        <time>2020-10-31T19:54:25Z</time>
      </trkpt>
      <trkpt lat="43.25732" lon="1.19643">
        <ele>216.074</ele>
        <time>2021-05-14T16:06:02Z</time>
      </trkpt>
      <trkpt lat="43.25773" lon="1.19658">
        <ele>215.287</ele>
        <time>2020-10-31T19:54:05Z</time>
      </trkpt>
      <trkpt lat="43.2571" lon="1.19941">
        <ele>215.022</ele>
        <time>2020-06-01T21:23:40Z</time>
      </trkpt>
      <trkpt lat="43.25679" lon="1.19957">
        <ele>214.708</ele>
        <time>2020-10-31T19:53:25Z</time>
      </trkpt>
      <trkpt lat="43.25699" lon="1.20038">
        <ele>214.017</ele>
        <time>2020-10-31T19:53:05Z</time>
      </trkpt>
      <trkpt lat="43.25703" lon="1.20105">
        <ele>213.052</ele>
        <time>2020-10-31T19:52:45Z</time>
      </trkpt>
      <trkpt lat="43.25734" lon="1.2011">
        <ele>212.658</ele>
        <time>2020-10-31T19:52:25Z</time>
      </trkpt>
      <trkpt lat="43.25731" lon="1.20284">
        <ele>210.87</ele>
        <time>2020-10-31T19:52:05Z</time>
      </trkpt>
      <trkpt lat="43.25801" lon="1.20275">
        <ele>210.076</ele>
        <time>2020-10-31T19:51:45Z</time>
      </trkpt>
      <trkpt lat="43.25832" lon="1.20416">
        <ele>207.875</ele>
        <time>2020-10-31T19:50:45Z</time>
      </trkpt>
      <trkpt lat="43.25826" lon="1.20437">
        <ele>210.91</ele>
        <time>2020-06-01T21:21:20Z</time>
      </trkpt>
      <trkpt lat="43.25771" lon="1.20483">
        <ele>215.196</ele>
        <time>2020-06-01T21:21:00Z</time>
      </trkpt>
      <trkpt lat="43.25758" lon="1.20579">
        <ele>226.87</ele>
        <time>2020-06-01T21:20:40Z</time>
      </trkpt>
      <trkpt lat="43.25694" lon="1.20695">
        <ele>229.053</ele>
        <time>2020-06-01T21:20:20Z</time>
      </trkpt>
      <trkpt lat="43.25659" lon="1.20705">
        <ele>231.448</ele>
        <time>2020-06-01T21:20:00Z</time>
      </trkpt>
      <trkpt lat="43.2553" lon="1.2065">
        <ele>248.108</ele>
        <time>2020-06-01T21:19:40Z</time>
      </trkpt>
      <trkpt lat="43.25467" lon="1.20718">
        <ele>248.703</ele>
        <time>2020-06-01T21:19:20Z</time>
      </trkpt>
      <trkpt lat="43.25424" lon="1.20732">
        <ele>250.821</ele>
        <time>2020-06-01T21:19:00Z</time>
      </trkpt>
      <trkpt lat="43.25385" lon="1.20791">
        <ele>250.711</ele>
        <time>2020-06-01T21:18:40Z</time>
      </trkpt>
      <trkpt lat="43.25373" lon="1.20799">
        <ele>251.873</ele>
        <time>2020-06-01T21:18:20Z</time>
      </trkpt>
      <trkpt lat="43.25355" lon="1.20907">
        <ele>243.919</ele>
        <time>2020-06-01T21:18:00Z</time>
      </trkpt>
      <trkpt lat="43.2533" lon="1.20968">
        <ele>241.658</ele>
        <time>2020-06-01T21:17:40Z</time>
      </trkpt>
      <trkpt lat="43.25271" lon="1.21029">
        <ele>242.813</ele>
        <time>2020-06-01T21:17:20Z</time>
      </trkpt>
      <trkpt lat="43.25289" lon="1.21053">
        <ele>236.239</ele>
        <time>2020-06-01T21:17:00Z</time>
      </trkpt>
      <trkpt lat="43.25299" lon="1.21067">
        <ele>231.763</ele>
        <time>2020-06-01T21:16:40Z</time>
      </trkpt>
      <trkpt lat="43.25297" lon="1.21084">
        <ele>229.626</ele>
        <time>2020-06-01T21:16:20Z</time>
      </trkpt>
      <trkpt lat="43.25247" lon="1.21124">
        <ele>226.151</ele>
        <time>2020-06-01T21:16:00Z</time>
      </trkpt>
      <trkpt lat="43.25114" lon="1.21083">
        <ele>230.608</ele>
        <time>2020-06-01T21:15:40Z</time>
      </trkpt>
      <trkpt lat="43.25036" lon="1.21067">
        <ele>235.817</ele>
        <time>2020-06-01T21:15:20Z</time>
      </trkpt>
      <trkpt lat="43.25041" lon="1.21111">
        <ele>244.561</ele>
        <time>2020-06-01T21:15:00Z</time>
      </trkpt>
      <trkpt lat="43.2509" lon="1.21203">
        <ele>261.948</ele>
        <time>2020-06-01T21:14:40Z</time>
      </trkpt>
      <trkpt lat="43.25116" lon="1.21285">
        <ele>271.08</ele>
        <time>2020-06-01T21:14:20Z</time>
      </trkpt>
      <trkpt lat="43.25116" lon="1.21407">
        <ele>279.316</ele>
        <time>2020-06-01T21:14:00Z</time>
      </trkpt>
      <trkpt lat="43.25214" lon="1.21436">
        <ele>257.025</ele>
        <time>2020-06-01T21:13:40Z</time>
      </trkpt>
      <trkpt lat="43.25254" lon="1.21412">
        <ele>249.38</ele>
        <time>2020-10-31T19:42:25Z</time>
      </trkpt>
      <trkpt lat="43.25295" lon="1.21368">
        <ele>238.756</ele>
        <time>2020-10-31T19:42:05Z</time>
      </trkpt>
      <trkpt lat="43.2536" lon="1.21304">
        <ele>229.99</ele>
        <time>2020-06-01T21:13:00Z</time>
      </trkpt>
      <trkpt lat="43.25369" lon="1.21299">
        <ele>231.093</ele>
        <time>2020-06-01T21:12:40Z</time>
      </trkpt>
      <trkpt lat="43.25424" lon="1.21324">
        <ele>243.368</ele>
        <time>2020-06-01T21:12:20Z</time>
      </trkpt>
      <trkpt lat="43.25433" lon="1.21306">
        <ele>244.208</ele>
        <time>2020-10-31T19:40:45Z</time>
      </trkpt>
      <trkpt lat="43.25439" lon="1.21317">
        <ele>246.717</ele>
        <time>2020-10-31T19:40:25Z</time>
      </trkpt>
      <trkpt lat="43.25384" lon="1.21532">
        <ele>246.398</ele>
        <time>2020-06-01T21:09:20Z</time>
      </trkpt>
      <trkpt lat="43.25383" lon="1.21568">
        <ele>247.318</ele>
        <time>2020-06-01T21:09:00Z</time>
      </trkpt>
      <trkpt lat="43.25385" lon="1.21594">
        <ele>249.016</ele>
        <time>2020-06-01T21:08:40Z</time>
      </trkpt>
      <trkpt lat="43.25458" lon="1.21727">
        <ele>279.912</ele>
        <time>2020-06-01T21:07:40Z</time>
      </trkpt>
      <trkpt lat="43.25517" lon="1.21654">
        <ele>277.261</ele>
        <time>2020-10-31T19:38:05Z</time>
      </trkpt>
      <trkpt lat="43.25768" lon="1.21807">
        <ele>264.846</ele>
        <time>2020-06-01T21:05:00Z</time>
      </trkpt>
      <trkpt lat="43.25781" lon="1.21776">
        <ele>257.682</ele>
        <time>2020-06-01T21:04:40Z</time>
      </trkpt>
      <trkpt lat="43.25808" lon="1.21757">
        <ele>254.916</ele>
        <time>2020-06-01T21:04:00Z</time>
      </trkpt>
      <trkpt lat="43.2598" lon="1.2179">
        <ele>238.529</ele>
        <time>2020-06-01T21:03:40Z</time>
      </trkpt>
      <trkpt lat="43.26042" lon="1.2175">
        <ele>236.564</ele>
        <time>2020-06-01T21:03:20Z</time>
      </trkpt>
      <trkpt lat="43.26093" lon="1.21691">
        <ele>234.208</ele>
        <time>2020-06-01T21:03:00Z</time>
      </trkpt>
      <trkpt lat="43.26139" lon="1.21604">
        <ele>235.22</ele>
        <time>2020-06-01T21:02:40Z</time>
      </trkpt>
      <trkpt lat="43.2616" lon="1.21561">
        <ele>234.628</ele>
        <time>2020-06-01T21:02:20Z</time>
      </trkpt>
      <trkpt lat="43.26255" lon="1.21688">
        <ele>220.975</ele>
        <time>2020-06-01T21:02:00Z</time>
      </trkpt>
      <trkpt lat="43.26236" lon="1.21729">
        <ele>221.123</ele>
        <time>2020-06-01T21:01:40Z</time>
      </trkpt>
      <trkpt lat="43.26236" lon="1.21769">
        <ele>218.079</ele>
        <time>2020-06-01T21:01:20Z</time>
      </trkpt>
      <trkpt lat="43.26244" lon="1.21801">
        <ele>212.878</ele>
        <time>2020-06-01T21:01:00Z</time>
      </trkpt>
      <trkpt lat="43.26289" lon="1.21914">
        <ele>217.423</ele>
        <time>2020-06-01T21:00:40Z</time>
      </trkpt>
      <trkpt lat="43.26292" lon="1.21939">
        <ele>217.999</ele>
        <time>2020-06-01T21:00:20Z</time>
      </trkpt>
      <trkpt lat="43.26302" lon="1.21938">
        <ele>218.563</ele>
        <time>2020-06-01T21:00:00Z</time>
      </trkpt>
      <trkpt lat="43.26373" lon="1.21845">
        <ele>218.416</ele>
        <time>2020-06-01T20:59:40Z</time>
      </trkpt>
      <trkpt lat="43.26393" lon="1.21799">
        <ele>215.721</ele>
        <time>2020-06-01T20:59:20Z</time>
      </trkpt>
      <trkpt lat="43.26449" lon="1.2177">
        <ele>215.908</ele>
        <time>2020-06-01T20:59:00Z</time>
      </trkpt>
      <trkpt lat="43.26448" lon="1.21823">
        <ele>218.71</ele>
        <time>2020-06-01T20:58:40Z</time>
      </trkpt>
      <trkpt lat="43.26484" lon="1.21883">
        <ele>223.064</ele>
        <time>2020-06-01T20:58:20Z</time>
      </trkpt>
      <trkpt lat="43.26507" lon="1.21902">
        <ele>225.843</ele>
        <time>2020-06-01T20:58:00Z</time>
      </trkpt>
      <trkpt lat="43.26541" lon="1.219">
        <ele>231.352</ele>
        <time>2020-06-01T20:57:40Z</time>
      </trkpt>
      <trkpt lat="43.26561" lon="1.21892">
        <ele>237.058</ele>
        <time>2020-06-01T20:57:20Z</time>
      </trkpt>
      <trkpt lat="43.26596" lon="1.21847">
        <ele>240.567</ele>
        <time>2020-06-01T20:57:00Z</time>
      </trkpt>
      <trkpt lat="43.26627" lon="1.21836">
        <ele>241.932</ele>
        <time>2020-06-01T20:56:40Z</time>
      </trkpt>
      <trkpt lat="43.26636" lon="1.21849">
        <ele>244.148</ele>
        <time>2020-06-01T20:56:20Z</time>
      </trkpt>
      <trkpt lat="43.26645" lon="1.2197">
        <ele>252.912</ele>
        <time>2020-06-01T20:56:00Z</time>
      </trkpt>
      <trkpt lat="43.26702" lon="1.22057">
        <ele>258.145</ele>
        <time>2020-06-01T20:55:40Z</time>
      </trkpt>
      <trkpt lat="43.26769" lon="1.22163">
        <ele>268.51</ele>
        <time>2020-06-01T20:55:20Z</time>
      </trkpt>
      <trkpt lat="43.26777" lon="1.22293">
        <ele>279.008</ele>
        <time>2020-06-01T20:55:00Z</time>
      </trkpt>
      <trkpt lat="43.2677" lon="1.22405">
        <ele>285.415</ele>
        <time>2020-06-01T20:54:40Z</time>
      </trkpt>
      <trkpt lat="43.26902" lon="1.22443">
        <ele>298.423</ele>
        <time>2020-06-01T20:54:20Z</time>
      </trkpt>
      <trkpt lat="43.2698" lon="1.22479">
        <ele>303.433</ele>
        <time>2020-06-01T20:54:00Z</time>
      </trkpt>
      <trkpt lat="43.27038" lon="1.22491">
        <ele>305.714</ele>
        <time>2020-10-31T19:25:05Z</time>
      </trkpt>
      <trkpt lat="43.27098" lon="1.22492">
        <ele>297.74</ele>
        <time>2020-10-31T19:24:45Z</time>
      </trkpt>
      <trkpt lat="43.27142" lon="1.22472">
        <ele>295.019</ele>
        <time>2020-10-31T19:24:25Z</time>
      </trkpt>
      <trkpt lat="43.27209" lon="1.22433">
        <ele>286.814</ele>
        <time>2020-10-31T19:24:05Z</time>
      </trkpt>
      <trkpt lat="43.27231" lon="1.22442">
        <ele>284.74</ele>
        <time>2020-06-01T20:52:20Z</time>
      </trkpt>
      <trkpt lat="43.27244" lon="1.22494">
        <ele>284.834</ele>
        <time>2020-06-01T20:52:00Z</time>
      </trkpt>
      <trkpt lat="43.27268" lon="1.22541">
        <ele>285.237</ele>
        <time>2020-06-01T20:51:40Z</time>
      </trkpt>
      <trkpt lat="43.27298" lon="1.22567">
        <ele>285.072</ele>
        <time>2020-06-01T20:51:20Z</time>
      </trkpt>
      <trkpt lat="43.27325" lon="1.22576">
        <ele>286.608</ele>
        <time>2020-06-01T20:51:00Z</time>
      </trkpt>
      <trkpt lat="43.27355" lon="1.22582">
        <ele>290.211</ele>
        <time>2020-06-01T20:50:40Z</time>
      </trkpt>
      <trkpt lat="43.27384" lon="1.22622">
        <ele>295.301</ele>
        <time>2020-06-01T20:50:20Z</time>
      </trkpt>
      <trkpt lat="43.27412" lon="1.22704">
        <ele>304.351</ele>
        <time>2020-06-01T20:50:00Z</time>
      </trkpt>
      <trkpt lat="43.2742" lon="1.2275">
        <ele>307.775</ele>
        <time>2020-06-01T20:49:40Z</time>
      </trkpt>
      <trkpt lat="43.27432" lon="1.22869">
        <ele>312.761</ele>
        <time>2020-06-01T20:49:20Z</time>
      </trkpt>
      <trkpt lat="43.27448" lon="1.22898">
        <ele>312.48</ele>
        <time>2020-10-31T19:20:25Z</time>
      </trkpt>
      <trkpt lat="43.27474" lon="1.229">
        <ele>315.235</ele>
        <time>2020-10-31T19:20:05Z</time>
      </trkpt>
      <trkpt lat="43.27517" lon="1.22864">
        <ele>317.431</ele>
        <time>2020-10-31T19:19:45Z</time>
      </trkpt>
      <trkpt lat="43.27623" lon="1.22804">
        <ele>316.315</ele>
        <time>2020-06-01T20:48:20Z</time>
      </trkpt>
      <trkpt lat="43.27648" lon="1.22807">
        <ele>316.848</ele>
        <time>2020-06-01T20:48:00Z</time>
      </trkpt>
      <trkpt lat="43.27689" lon="1.2284">
        <ele>316.963</ele>
        <time>2020-06-01T20:47:40Z</time>
      </trkpt>
      <trkpt lat="43.27873" lon="1.23007">
        <ele>286.008</ele>
        <time>2020-06-01T20:47:20Z</time>
      </trkpt>
      <trkpt lat="43.27908" lon="1.23014">
        <ele>282.916</ele>
        <time>2020-06-01T20:47:00Z</time>
      </trkpt>
      <trkpt lat="43.28022" lon="1.22996">
        <ele>278.206</ele>
        <time>2020-06-01T20:46:40Z</time>
      </trkpt>
      <trkpt lat="43.28137" lon="1.22929">
        <ele>271.864</ele>
        <time>2020-06-01T20:46:20Z</time>
      </trkpt>
      <trkpt lat="43.28211" lon="1.22882">
        <ele>268.526</ele>
        <time>2020-06-01T20:46:00Z</time>
      </trkpt>
      <trkpt lat="43.28238" lon="1.22824">
        <ele>265.572</ele>
        <time>2020-06-01T20:45:40Z</time>
      </trkpt>
      <trkpt lat="43.28329" lon="1.22434">
        <ele>251.071</ele>
        <time>2020-06-01T20:45:20Z</time>
      </trkpt>
      <trkpt lat="43.2834" lon="1.22393">
        <ele>249.816</ele>
        <time>2020-06-01T20:45:00Z</time>
      </trkpt>
      <trkpt lat="43.28373" lon="1.22386">
        <ele>246.042</ele>
        <time>2020-06-01T20:44:40Z</time>
      </trkpt>
      <trkpt lat="43.28377" lon="1.22369">
        <ele>241.436</ele>
        <time>2020-06-01T20:44:20Z</time>
      </trkpt>
      <trkpt lat="43.28411" lon="1.22317">
        <ele>221.489</ele>
        <time>2020-06-01T20:44:00Z</time>
      </trkpt>
      <trkpt lat="43.28416" lon="1.22298">
        <ele>216.344</ele>
        <time>2020-06-01T20:43:40Z</time>
      </trkpt>
      <trkpt lat="43.28485" lon="1.22321">
        <ele>214.408</ele>
        <time>2020-06-01T20:43:20Z</time>
      </trkpt>
      <trkpt lat="43.28501" lon="1.22335">
        <ele>215.213</ele>
        <time>2020-06-01T20:43:00Z</time>
      </trkpt>
      <trkpt lat="43.28551" lon="1.22319">
        <ele>205.985</ele>
        <time>2020-06-01T20:42:40Z</time>
      </trkpt>
      <trkpt lat="43.2861" lon="1.22334">
        <ele>197.473</ele>
        <time>2020-06-01T20:42:20Z</time>
      </trkpt>
      <trkpt lat="43.28631" lon="1.22347">
        <ele>194.494</ele>
        <time>2020-06-01T20:42:00Z</time>
      </trkpt>
      <trkpt lat="43.28705" lon="1.22225">
        <ele>205.51</ele>
        <time>2020-06-01T20:41:40Z</time>
      </trkpt>
      <trkpt lat="43.28735" lon="1.22164">
        <ele>205.319</ele>
        <time>2020-06-01T20:41:20Z</time>
      </trkpt>
      <trkpt lat="43.28743" lon="1.22135">
        <ele>204.444</ele>
        <time>2020-06-01T20:41:00Z</time>
      </trkpt>
      <trkpt lat="43.28733" lon="1.22014">
        <ele>206.38</ele>
        <time>2020-06-01T20:40:40Z</time>
      </trkpt>
      <trkpt lat="43.28751" lon="1.21969">
        <ele>206.134</ele>
        <time>2020-06-01T20:40:20Z</time>
      </trkpt>
      <trkpt lat="43.28795" lon="1.21899">
        <ele>206.827</ele>
        <time>2020-06-01T20:40:00Z</time>
      </trkpt>
      <trkpt lat="43.28806" lon="1.21845">
        <ele>207.072</ele>
        <time>2020-06-01T20:39:40Z</time>
      </trkpt>
      <trkpt lat="43.2882" lon="1.21674">
        <ele>205.908</ele>
        <time>2020-06-01T20:39:20Z</time>
      </trkpt>
      <trkpt lat="43.29105" lon="1.21643">
        <ele>199.82</ele>
        <time>2020-10-31T19:10:05Z</time>
      </trkpt>
      <trkpt lat="43.29103" lon="1.21651">
        <ele>199.7</ele>
        <time>2020-10-31T19:09:45Z</time>
      </trkpt>
      <trkpt lat="43.29078" lon="1.21667">
        <ele>198.157</ele>
        <time>2020-10-31T19:09:25Z</time>
      </trkpt>
      <trkpt lat="43.29051" lon="1.21669">
        <ele>194.092</ele>
        <time>2020-06-01T20:37:00Z</time>
      </trkpt>
      <trkpt lat="43.29056" lon="1.21711">
        <ele>194.758</ele>
        <time>2020-06-01T20:36:40Z</time>
      </trkpt>
      <trkpt lat="43.29057" lon="1.21747">
        <ele>195.247</ele>
        <time>2020-06-01T20:36:20Z</time>
      </trkpt>
      <trkpt lat="43.29073" lon="1.21858">
        <ele>195.322</ele>
        <time>2020-06-01T20:36:00Z</time>
      </trkpt>
      <trkpt lat="43.29073" lon="1.21938">
        <ele>193.888</ele>
        <time>2020-06-01T20:35:40Z</time>
      </trkpt>
      <trkpt lat="43.29085" lon="1.21989">
        <ele>194.212</ele>
        <time>2020-06-01T20:35:20Z</time>
      </trkpt>
      <trkpt lat="43.29082" lon="1.22017">
        <ele>193.435</ele>
        <time>2020-06-01T20:35:00Z</time>
      </trkpt>
      <trkpt lat="43.29098" lon="1.22161">
        <ele>194.19</ele>
        <time>2020-06-01T20:34:40Z</time>
      </trkpt>
      <trkpt lat="43.29107" lon="1.22437">
        <ele>192.208</ele>
        <time>2020-06-01T20:34:20Z</time>
      </trkpt>
      <trkpt lat="43.29096" lon="1.22514">
        <ele>192.407</ele>
        <time>2020-06-01T20:34:00Z</time>
      </trkpt>
      <trkpt lat="43.29085" lon="1.22566">
        <ele>192.461</ele>
        <time>2020-06-01T20:33:40Z</time>
      </trkpt>
      <trkpt lat="43.29108" lon="1.22623">
        <ele>195.731</ele>
        <time>2020-06-01T20:33:20Z</time>
      </trkpt>
      <trkpt lat="43.29137" lon="1.2262">
        <ele>195.627</ele>
        <time>2020-06-01T20:33:00Z</time>
      </trkpt>
      <trkpt lat="43.29099" lon="1.22657">
        <ele>198.713</ele>
        <time>2020-06-01T20:32:40Z</time>
      </trkpt>
      <trkpt lat="43.29131" lon="1.22647">
        <ele>199.182</ele>
        <time>2020-06-01T20:32:20Z</time>
      </trkpt>
      <trkpt lat="43.29258" lon="1.22636">
        <ele>199.697</ele>
        <time>2020-06-01T20:32:00Z</time>
      </trkpt>
      <trkpt lat="43.29363" lon="1.22602">
        <ele>199.783</ele>
        <time>2020-10-31T19:03:45Z</time>
      </trkpt>
      <trkpt lat="43.29462" lon="1.22559">
        <ele>201.797</ele>
        <time>2020-10-31T19:03:25Z</time>
      </trkpt>
      <trkpt lat="43.29475" lon="1.2263">
        <ele>202.07</ele>
        <time>2020-10-31T19:03:05Z</time>
      </trkpt>
      <trkpt lat="43.29559" lon="1.22594">
        <ele>203.735</ele>
        <time>2020-06-01T20:31:00Z</time>
      </trkpt>
      <trkpt lat="43.29602" lon="1.22605">
        <ele>203.508</ele>
        <time>2020-06-01T20:30:40Z</time>
      </trkpt>
      <trkpt lat="43.29695" lon="1.22605">
        <ele>202.826</ele>
        <time>2020-06-01T20:30:20Z</time>
      </trkpt>
      <trkpt lat="43.29809" lon="1.22642">
        <ele>201.924</ele>
        <time>2020-06-01T20:30:00Z</time>
      </trkpt>
      <trkpt lat="43.30014" lon="1.22782">
        <ele>208.088</ele>
        <time>2020-06-01T20:29:40Z</time>
      </trkpt>
      <trkpt lat="43.30156" lon="1.22857">
        <ele>208.067</ele>
        <time>2020-06-01T20:29:20Z</time>
      </trkpt>
      <trkpt lat="43.30219" lon="1.22881">
        <ele>208.093</ele>
        <time>2020-06-01T20:29:00Z</time>
      </trkpt>
      <trkpt lat="43.3044" lon="1.22954">
        <ele>207.072</ele>
        <time>2020-06-01T20:28:40Z</time>
      </trkpt>
      <trkpt lat="43.30445" lon="1.22981">
        <ele>206.717</ele>
        <time>2020-06-01T20:28:20Z</time>
      </trkpt>
      <trkpt lat="43.30464" lon="1.23">
        <ele>206.053</ele>
        <time>2020-06-01T20:28:00Z</time>
      </trkpt>
      <trkpt lat="43.30534" lon="1.23105">
        <ele>205.227</ele>
        <time>2020-06-01T20:27:40Z</time>
      </trkpt>
      <trkpt lat="43.30617" lon="1.23191">
        <ele>205.01</ele>
        <time>2020-06-01T20:27:20Z</time>
      </trkpt>
      <trkpt lat="43.30653" lon="1.23212">
        <ele>205.075</ele>
        <time>2020-06-01T20:27:00Z</time>
      </trkpt>
      <trkpt lat="43.30781" lon="1.23249">
        <ele>201.108</ele>
        <time>2020-06-01T20:26:40Z</time>
      </trkpt>
      <trkpt lat="43.30918" lon="1.23272">
        <ele>204.226</ele>
        <time>2020-06-01T20:26:20Z</time>
      </trkpt>
      <trkpt lat="43.30956" lon="1.23298">
        <ele>203.742</ele>
        <time>2020-06-01T20:26:00Z</time>
      </trkpt>
      <trkpt lat="43.30977" lon="1.2333">
        <ele>201.787</ele>
        <time>2020-06-01T20:25:40Z</time>
      </trkpt>
      <trkpt lat="43.31075" lon="1.23401">
        <ele>201.988</ele>
        <time>2020-06-01T20:25:20Z</time>
      </trkpt>
      <trkpt lat="43.31122" lon="1.23488">
        <ele>200.734</ele>
        <time>2020-06-01T20:25:00Z</time>
      </trkpt>
      <trkpt lat="43.3116" lon="1.23529">
        <ele>200.723</ele>
        <time>2020-06-01T20:24:40Z</time>
      </trkpt>
      <trkpt lat="43.31252" lon="1.23606">
        <ele>200.278</ele>
        <time>2020-06-01T20:24:20Z</time>
      </trkpt>
      <trkpt lat="43.31292" lon="1.23624">
        <ele>200.354</ele>
        <time>2020-06-01T20:24:00Z</time>
      </trkpt>
      <trkpt lat="43.31406" lon="1.23839">
        <ele>199.568</ele>
        <time>2020-06-01T20:23:40Z</time>
      </trkpt>
      <trkpt lat="43.31434" lon="1.23879">
        <ele>199.151</ele>
        <time>2020-06-01T20:23:20Z</time>
      </trkpt>
      <trkpt lat="43.3143" lon="1.23934">
        <ele>195.856</ele>
        <time>2020-06-01T20:23:00Z</time>
      </trkpt>
      <trkpt lat="43.31464" lon="1.24021">
        <ele>192.908</ele>
        <time>2020-06-01T20:22:40Z</time>
      </trkpt>
      <trkpt lat="43.31512" lon="1.24116">
        <ele>189.726</ele>
        <time>2020-06-01T20:22:20Z</time>
      </trkpt>
      <trkpt lat="43.3157" lon="1.24255">
        <ele>185.415</ele>
        <time>2020-06-01T20:22:00Z</time>
      </trkpt>
      <trkpt lat="43.31618" lon="1.243">
        <ele>184.698</ele>
        <time>2020-06-01T20:21:40Z</time>
      </trkpt>
      <trkpt lat="43.31705" lon="1.24353">
        <ele>184.378</ele>
        <time>2020-06-01T20:21:20Z</time>
      </trkpt>
      <trkpt lat="43.31738" lon="1.2425">
        <ele>189.064</ele>
        <time>2021-05-14T15:07:22Z</time>
      </trkpt>
      <trkpt lat="43.31764" lon="1.24234">
        <ele>190.173</ele>
        <time>2020-06-01T20:21:00Z</time>
      </trkpt>
      <trkpt lat="43.31688" lon="1.24564">
        <ele>196.448</ele>
        <time>2020-06-01T20:20:40Z</time>
      </trkpt>
      <trkpt lat="43.31707" lon="1.2457">
        <ele>196.194</ele>
        <time>2020-06-01T20:20:20Z</time>
      </trkpt>
      <trkpt lat="43.31757" lon="1.24619">
        <ele>195.748</ele>
        <time>2020-06-01T20:20:00Z</time>
      </trkpt>
      <trkpt lat="43.31855" lon="1.24666">
        <ele>195.061</ele>
        <time>2020-06-01T20:19:40Z</time>
      </trkpt>
      <trkpt lat="43.31884" lon="1.24603">
        <ele>195.046</ele>
        <time>2020-06-01T20:19:20Z</time>
      </trkpt>
      <trkpt lat="43.31935" lon="1.24622">
        <ele>195.008</ele>
        <time>2020-06-01T20:19:00Z</time>
      </trkpt>
      <trkpt lat="43.31977" lon="1.24604">
        <ele>192.123</ele>
        <time>2020-06-01T20:18:40Z</time>
      </trkpt>
      <trkpt lat="43.3201" lon="1.24619">
        <ele>188.649</ele>
        <time>2020-06-01T20:18:20Z</time>
      </trkpt>
      <trkpt lat="43.32089" lon="1.24677">
        <ele>184.595</ele>
        <time>2020-06-01T20:18:00Z</time>
      </trkpt>
      <trkpt lat="43.32111" lon="1.24701">
        <ele>184.275</ele>
        <time>2020-06-01T20:17:40Z</time>
      </trkpt>
      <trkpt lat="43.32161" lon="1.24759">
        <ele>183.531</ele>
        <time>2020-06-01T20:17:20Z</time>
      </trkpt>
      <trkpt lat="43.32194" lon="1.24783">
        <ele>183.06</ele>
        <time>2020-06-01T20:17:00Z</time>
      </trkpt>
      <trkpt lat="43.32199" lon="1.248">
        <ele>182.915</ele>
        <time>2020-06-01T20:16:40Z</time>
      </trkpt>
      <trkpt lat="43.3218" lon="1.24819">
        <ele>183.891</ele>
        <time>2020-06-01T20:16:20Z</time>
      </trkpt>
      <trkpt lat="43.32167" lon="1.24819">
        <ele>184.025</ele>
        <time>2020-06-01T20:16:00Z</time>
      </trkpt>
      <trkpt lat="43.3213" lon="1.24899">
        <ele>188.458</ele>
        <time>2020-06-01T20:15:40Z</time>
      </trkpt>
      <trkpt lat="43.32101" lon="1.24928">
        <ele>193.113</ele>
        <time>2020-06-01T20:15:20Z</time>
      </trkpt>
      <trkpt lat="43.32071" lon="1.24938">
        <ele>196.508</ele>
        <time>2020-06-01T20:15:00Z</time>
      </trkpt>
      <trkpt lat="43.32063" lon="1.24987">
        <ele>215.918</ele>
        <time>2020-06-01T20:14:40Z</time>
      </trkpt>
      <trkpt lat="43.32075" lon="1.25006">
        <ele>221.344</ele>
        <time>2020-06-01T20:14:20Z</time>
      </trkpt>
      <trkpt lat="43.32062" lon="1.25012">
        <ele>226.563</ele>
        <time>2020-06-01T20:14:00Z</time>
      </trkpt>
      <trkpt lat="43.32061" lon="1.25032">
        <ele>232.19</ele>
        <time>2020-06-01T20:13:40Z</time>
      </trkpt>
      <trkpt lat="43.32086" lon="1.25045">
        <ele>226.946</ele>
        <time>2020-06-01T20:13:20Z</time>
      </trkpt>
      <trkpt lat="43.32111" lon="1.25097">
        <ele>229.935</ele>
        <time>2020-06-01T20:13:00Z</time>
      </trkpt>
      <trkpt lat="43.3213" lon="1.25168">
        <ele>233.12</ele>
        <time>2020-06-01T20:12:40Z</time>
      </trkpt>
      <trkpt lat="43.32167" lon="1.25246">
        <ele>234.636</ele>
        <time>2020-06-01T20:12:20Z</time>
      </trkpt>
      <trkpt lat="43.32182" lon="1.25246">
        <ele>233.94</ele>
        <time>2020-06-01T20:12:00Z</time>
      </trkpt>
      <trkpt lat="43.32222" lon="1.25341">
        <ele>243.043</ele>
        <time>2020-06-01T20:11:40Z</time>
      </trkpt>
      <trkpt lat="43.32235" lon="1.25398">
        <ele>250.248</ele>
        <time>2020-06-01T20:11:20Z</time>
      </trkpt>
      <trkpt lat="43.32271" lon="1.25453">
        <ele>258.108</ele>
        <time>2020-06-01T20:11:00Z</time>
      </trkpt>
      <trkpt lat="43.3232" lon="1.25559">
        <ele>265.109</ele>
        <time>2020-06-01T20:10:40Z</time>
      </trkpt>
      <trkpt lat="43.32334" lon="1.25619">
        <ele>266.054</ele>
        <time>2020-06-01T20:10:20Z</time>
      </trkpt>
      <trkpt lat="43.32332" lon="1.2568">
        <ele>267.514</ele>
        <time>2020-06-01T20:10:00Z</time>
      </trkpt>
      <trkpt lat="43.32317" lon="1.25744">
        <ele>271.458</ele>
        <time>2020-06-01T20:09:40Z</time>
      </trkpt>
      <trkpt lat="43.32279" lon="1.25806">
        <ele>275.984</ele>
        <time>2020-06-01T20:09:20Z</time>
      </trkpt>
      <trkpt lat="43.32265" lon="1.25867">
        <ele>280.053</ele>
        <time>2020-06-01T20:09:00Z</time>
      </trkpt>
      <trkpt lat="43.32258" lon="1.26003">
        <ele>280.068</ele>
        <time>2020-06-01T20:08:40Z</time>
      </trkpt>
      <trkpt lat="43.32273" lon="1.2605">
        <ele>280.074</ele>
        <time>2020-06-01T20:08:20Z</time>
      </trkpt>
      <trkpt lat="43.32295" lon="1.2607">
        <ele>278.268</ele>
        <time>2020-06-01T20:08:00Z</time>
      </trkpt>
      <trkpt lat="43.32299" lon="1.26096">
        <ele>275.851</ele>
        <time>2020-06-01T20:07:40Z</time>
      </trkpt>
      <trkpt lat="43.32315" lon="1.26118">
        <ele>272.596</ele>
        <time>2020-06-01T20:07:20Z</time>
      </trkpt>
      <trkpt lat="43.324" lon="1.26144">
        <ele>264.808</ele>
        <time>2020-06-01T20:07:00Z</time>
      </trkpt>
      <trkpt lat="43.32462" lon="1.26176">
        <ele>270.224</ele>
        <time>2020-06-01T20:06:40Z</time>
      </trkpt>
      <trkpt lat="43.3257" lon="1.26242">
        <ele>270.931</ele>
        <time>2020-06-01T20:06:20Z</time>
      </trkpt>
      <trkpt lat="43.32607" lon="1.26295">
        <ele>269.196</ele>
        <time>2020-06-01T20:06:00Z</time>
      </trkpt>
      <trkpt lat="43.32704" lon="1.26472">
        <ele>271.436</ele>
        <time>2020-06-01T20:05:40Z</time>
      </trkpt>
      <trkpt lat="43.32741" lon="1.26566">
        <ele>267.522</ele>
        <time>2020-06-01T20:05:00Z</time>
      </trkpt>
      <trkpt lat="43.32819" lon="1.26605">
        <ele>265.981</ele>
        <time>2020-06-01T20:04:40Z</time>
      </trkpt>
      <trkpt lat="43.32826" lon="1.26538">
        <ele>264.856</ele>
        <time>2020-06-01T20:04:20Z</time>
      </trkpt>
      <trkpt lat="43.32868" lon="1.26552">
        <ele>266.172</ele>
        <time>2020-06-01T20:04:00Z</time>
      </trkpt>
      <trkpt lat="43.32891" lon="1.26537">
        <ele>266.656</ele>
        <time>2020-06-01T20:03:40Z</time>
      </trkpt>
      <trkpt lat="43.32926" lon="1.26526">
        <ele>269.929</ele>
        <time>2020-06-01T20:03:20Z</time>
      </trkpt>
      <trkpt lat="43.32937" lon="1.26533">
        <ele>271.564</ele>
        <time>2020-06-01T20:03:00Z</time>
      </trkpt>
      <trkpt lat="43.33033" lon="1.26566">
        <ele>278.708</ele>
        <time>2020-06-01T20:02:40Z</time>
      </trkpt>
      <trkpt lat="43.33138" lon="1.26601">
        <ele>277.315</ele>
        <time>2020-06-01T20:02:20Z</time>
      </trkpt>
      <trkpt lat="43.33312" lon="1.26721">
        <ele>248.041</ele>
        <time>2020-06-01T20:02:00Z</time>
      </trkpt>
      <trkpt lat="43.33368" lon="1.26746">
        <ele>242.271</ele>
        <time>2020-06-01T20:01:40Z</time>
      </trkpt>
      <trkpt lat="43.33402" lon="1.26801">
        <ele>239.953</ele>
        <time>2020-06-01T20:01:20Z</time>
      </trkpt>
      <trkpt lat="43.33449" lon="1.26783">
        <ele>234.879</ele>
        <time>2020-06-01T20:01:00Z</time>
      </trkpt>
      <trkpt lat="43.33496" lon="1.26752">
        <ele>231.238</ele>
        <time>2020-06-01T20:00:40Z</time>
      </trkpt>
      <trkpt lat="43.33509" lon="1.26755">
        <ele>230.983</ele>
        <time>2020-06-01T20:00:20Z</time>
      </trkpt>
      <trkpt lat="43.33562" lon="1.26708">
        <ele>233.999</ele>
        <time>2020-06-01T20:00:00Z</time>
      </trkpt>
      <trkpt lat="43.3362" lon="1.26643">
        <ele>227.213</ele>
        <time>2020-06-01T19:59:40Z</time>
      </trkpt>
      <trkpt lat="43.33634" lon="1.26599">
        <ele>214.086</ele>
        <time>2020-06-01T19:59:20Z</time>
      </trkpt>
      <trkpt lat="43.33672" lon="1.26545">
        <ele>204.171</ele>
        <time>2020-06-01T19:59:00Z</time>
      </trkpt>
      <trkpt lat="43.33689" lon="1.26498">
        <ele>201.608</ele>
        <time>2020-06-01T19:58:40Z</time>
      </trkpt>
      <trkpt lat="43.33734" lon="1.26418">
        <ele>197.214</ele>
        <time>2020-06-01T19:58:20Z</time>
      </trkpt>
      <trkpt lat="43.33769" lon="1.26329">
        <ele>194.922</ele>
        <time>2020-06-01T19:58:00Z</time>
      </trkpt>
      <trkpt lat="43.33782" lon="1.26223">
        <ele>192.942</ele>
        <time>2020-06-01T19:57:40Z</time>
      </trkpt>
      <trkpt lat="43.33775" lon="1.2618">
        <ele>192.168</ele>
        <time>2020-06-01T19:57:20Z</time>
      </trkpt>
      <trkpt lat="43.33777" lon="1.26167">
        <ele>192.044</ele>
        <time>2020-06-01T19:57:00Z</time>
      </trkpt>
      <trkpt lat="43.33727" lon="1.2602">
        <ele>191.093</ele>
        <time>2020-06-01T19:56:40Z</time>
      </trkpt>
      <trkpt lat="43.33735" lon="1.25993">
        <ele>190.448</ele>
        <time>2020-06-01T19:56:20Z</time>
      </trkpt>
      <trkpt lat="43.34038" lon="1.25726">
        <ele>196.034</ele>
        <time>2020-06-01T19:55:40Z</time>
      </trkpt>
      <trkpt lat="43.34061" lon="1.25763">
        <ele>196.298</ele>
        <time>2020-10-31T18:27:25Z</time>
      </trkpt>
      <trkpt lat="43.34105" lon="1.25858">
        <ele>197.091</ele>
        <time>2020-06-01T19:54:40Z</time>
      </trkpt>
      <trkpt lat="43.34173" lon="1.25961">
        <ele>197.046</ele>
        <time>2020-10-31T18:26:45Z</time>
      </trkpt>
      <trkpt lat="43.34195" lon="1.26005">
        <ele>196.008</ele>
        <time>2020-10-31T18:26:25Z</time>
      </trkpt>
      <trkpt lat="43.34197" lon="1.26025">
        <ele>196.023</ele>
        <time>2020-10-31T18:26:05Z</time>
      </trkpt>
      <trkpt lat="43.34177" lon="1.26088">
        <ele>196.049</ele>
        <time>2020-06-01T19:53:00Z</time>
      </trkpt>
      <trkpt lat="43.34196" lon="1.2627">
        <ele>195.095</ele>
        <time>2020-06-01T19:52:40Z</time>
      </trkpt>
      <trkpt lat="43.34136" lon="1.26314">
        <ele>193.661</ele>
        <time>2020-06-01T19:52:20Z</time>
      </trkpt>
      <trkpt lat="43.34116" lon="1.26354">
        <ele>192.487</ele>
        <time>2020-06-01T19:52:00Z</time>
      </trkpt>
      <trkpt lat="43.34193" lon="1.26594">
        <ele>192.366</ele>
        <time>2020-06-01T19:51:40Z</time>
      </trkpt>
      <trkpt lat="43.34221" lon="1.26702">
        <ele>191.531</ele>
        <time>2020-06-01T19:51:20Z</time>
      </trkpt>
      <trkpt lat="43.34267" lon="1.26826">
        <ele>191.097</ele>
        <time>2020-06-01T19:51:00Z</time>
      </trkpt>
      <trkpt lat="43.34279" lon="1.26874">
        <ele>191.621</ele>
        <time>2020-06-01T19:50:40Z</time>
      </trkpt>
      <trkpt lat="43.34318" lon="1.26924">
        <ele>192.054</ele>
        <time>2020-06-01T19:50:20Z</time>
      </trkpt>
      <trkpt lat="43.34622" lon="1.27203">
        <ele>192.039</ele>
        <time>2020-06-01T19:50:00Z</time>
      </trkpt>
      <trkpt lat="43.34839" lon="1.27382">
        <ele>190.008</ele>
        <time>2020-06-01T19:49:40Z</time>
      </trkpt>
      <trkpt lat="43.34792" lon="1.27611">
        <ele>190.02</ele>
        <time>2020-06-01T19:49:20Z</time>
      </trkpt>
      <trkpt lat="43.34757" lon="1.27626">
        <ele>190</ele>
        <time>2020-06-01T19:49:00Z</time>
      </trkpt>
      <trkpt lat="43.34726" lon="1.27599">
        <ele>190.029</ele>
        <time>2020-06-01T19:48:40Z</time>
      </trkpt>
      <trkpt lat="43.34706" lon="1.27634">
        <ele>189.595</ele>
        <time>2020-06-01T19:48:20Z</time>
      </trkpt>
      <trkpt lat="43.34705" lon="1.27653">
        <ele>188.821</ele>
        <time>2020-06-01T19:48:00Z</time>
      </trkpt>
      <trkpt lat="43.34687" lon="1.27657">
        <ele>188.44</ele>
        <time>2020-06-01T19:47:40Z</time>
      </trkpt>
      <trkpt lat="43.34654" lon="1.27644">
        <ele>188.895</ele>
        <time>2020-06-01T19:47:20Z</time>
      </trkpt>
      <trkpt lat="43.34649" lon="1.27662">
        <ele>188.221</ele>
        <time>2020-06-01T19:47:00Z</time>
      </trkpt>
      <trkpt lat="43.34681" lon="1.27685">
        <ele>187.485</ele>
        <time>2020-06-01T19:46:40Z</time>
      </trkpt>
      <trkpt lat="43.34688" lon="1.27705">
        <ele>186.968</ele>
        <time>2020-06-01T19:46:20Z</time>
      </trkpt>
      <trkpt lat="43.34669" lon="1.27712">
        <ele>186.423</ele>
        <time>2020-06-01T19:46:00Z</time>
      </trkpt>
      <trkpt lat="43.34631" lon="1.27684">
        <ele>187.408</ele>
        <time>2020-06-01T19:45:40Z</time>
      </trkpt>
      <trkpt lat="43.34567" lon="1.2767">
        <ele>185.616</ele>
        <time>2020-06-01T19:45:20Z</time>
      </trkpt>
      <trkpt lat="43.34557" lon="1.27689">
        <ele>183.606</ele>
        <time>2020-06-01T19:45:00Z</time>
      </trkpt>
      <trkpt lat="43.3461" lon="1.27761">
        <ele>181.364</ele>
        <time>2020-06-01T19:44:40Z</time>
      </trkpt>
      <trkpt lat="43.3474" lon="1.27845">
        <ele>180.231</ele>
        <time>2020-06-01T19:44:20Z</time>
      </trkpt>
      <trkpt lat="43.34822" lon="1.27874">
        <ele>180.487</ele>
        <time>2020-06-01T19:44:00Z</time>
      </trkpt>
      <trkpt lat="43.34888" lon="1.27885">
        <ele>180.326</ele>
        <time>2020-06-01T19:43:40Z</time>
      </trkpt>
      <trkpt lat="43.35089" lon="1.27842">
        <ele>181.771</ele>
        <time>2020-06-01T19:43:20Z</time>
      </trkpt>
      <trkpt lat="43.3518" lon="1.27837">
        <ele>181.897</ele>
        <time>2020-06-01T19:43:00Z</time>
      </trkpt>
      <trkpt lat="43.3523" lon="1.27849">
        <ele>179.771</ele>
        <time>2020-06-01T19:42:40Z</time>
      </trkpt>
      <trkpt lat="43.35247" lon="1.27844">
        <ele>179.974</ele>
        <time>2020-06-01T19:42:20Z</time>
      </trkpt>
      <trkpt lat="43.35244" lon="1.278">
        <ele>183.449</ele>
        <time>2020-06-01T19:42:00Z</time>
      </trkpt>
      <trkpt lat="43.35254" lon="1.27749">
        <ele>185.008</ele>
        <time>2020-06-01T19:41:40Z</time>
      </trkpt>
      <trkpt lat="43.35269" lon="1.27728">
        <ele>185.811</ele>
        <time>2020-06-01T19:41:20Z</time>
      </trkpt>
      <trkpt lat="43.35263" lon="1.27791">
        <ele>184.083</ele>
        <time>2020-06-01T19:41:00Z</time>
      </trkpt>
      <trkpt lat="43.35298" lon="1.28036">
        <ele>186.523</ele>
        <time>2020-06-01T19:40:40Z</time>
      </trkpt>
      <trkpt lat="43.35145" lon="1.2804">
        <ele>186.122</ele>
        <time>2020-06-01T19:40:20Z</time>
      </trkpt>
      <trkpt lat="43.35131" lon="1.28114">
        <ele>191.168</ele>
        <time>2020-06-01T19:40:00Z</time>
      </trkpt>
      <trkpt lat="43.35142" lon="1.28184">
        <ele>192.697</ele>
        <time>2020-06-01T19:39:40Z</time>
      </trkpt>
      <trkpt lat="43.35156" lon="1.28221">
        <ele>193.032</ele>
        <time>2020-06-01T19:39:20Z</time>
      </trkpt>
      <trkpt lat="43.35204" lon="1.28308">
        <ele>193.758</ele>
        <time>2020-06-01T19:39:00Z</time>
      </trkpt>
      <trkpt lat="43.35204" lon="1.28336">
        <ele>194.132</ele>
        <time>2020-06-01T19:38:40Z</time>
      </trkpt>
      <trkpt lat="43.35226" lon="1.28401">
        <ele>197.165</ele>
        <time>2020-06-01T19:38:20Z</time>
      </trkpt>
      <trkpt lat="43.35229" lon="1.28423">
        <ele>199.81</ele>
        <time>2020-06-01T19:38:00Z</time>
      </trkpt>
      <trkpt lat="43.35238" lon="1.28425">
        <ele>199.908</ele>
        <time>2020-06-01T19:37:40Z</time>
      </trkpt>
      <trkpt lat="43.35267" lon="1.28507">
        <ele>212.018</ele>
        <time>2020-06-01T19:37:20Z</time>
      </trkpt>
      <trkpt lat="43.35291" lon="1.28563">
        <ele>216.117</ele>
        <time>2020-10-31T18:09:45Z</time>
      </trkpt>
      <trkpt lat="43.35307" lon="1.28635">
        <ele>224.536</ele>
        <time>2020-06-01T19:36:20Z</time>
      </trkpt>
      <trkpt lat="43.35323" lon="1.28673">
        <ele>232.075</ele>
        <time>2020-06-01T19:36:00Z</time>
      </trkpt>
      <trkpt lat="43.35368" lon="1.28749">
        <ele>247.581</ele>
        <time>2020-06-01T19:35:40Z</time>
      </trkpt>
      <trkpt lat="43.35362" lon="1.28776">
        <ele>252.74</ele>
        <time>2020-06-01T19:35:20Z</time>
      </trkpt>
      <trkpt lat="43.35389" lon="1.28756">
        <ele>248.475</ele>
        <time>2020-06-01T19:35:00Z</time>
      </trkpt>
      <trkpt lat="43.3543" lon="1.28776">
        <ele>250.511</ele>
        <time>2020-06-01T19:34:40Z</time>
      </trkpt>
      <trkpt lat="43.35454" lon="1.28827">
        <ele>259.625</ele>
        <time>2020-06-01T19:34:20Z</time>
      </trkpt>
      <trkpt lat="43.35485" lon="1.28852">
        <ele>260.458</ele>
        <time>2020-06-01T19:34:00Z</time>
      </trkpt>
      <trkpt lat="43.35511" lon="1.28866">
        <ele>259.953</ele>
        <time>2020-06-01T19:33:40Z</time>
      </trkpt>
      <trkpt lat="43.35525" lon="1.28893">
        <ele>265.408</ele>
        <time>2020-06-01T19:33:20Z</time>
      </trkpt>
      <trkpt lat="43.35557" lon="1.28986">
        <ele>272.418</ele>
        <time>2020-06-01T19:33:00Z</time>
      </trkpt>
      <trkpt lat="43.35587" lon="1.29038">
        <ele>274.144</ele>
        <time>2020-06-01T19:32:40Z</time>
      </trkpt>
      <trkpt lat="43.35585" lon="1.29066">
        <ele>274.563</ele>
        <time>2020-06-01T19:32:20Z</time>
      </trkpt>
      <trkpt lat="43.35567" lon="1.29145">
        <ele>273.957</ele>
        <time>2020-06-01T19:32:00Z</time>
      </trkpt>
      <trkpt lat="43.35585" lon="1.29145">
        <ele>275.473</ele>
        <time>2020-06-01T19:31:40Z</time>
      </trkpt>
      <trkpt lat="43.35612" lon="1.29158">
        <ele>279.032</ele>
        <time>2020-06-01T19:31:20Z</time>
      </trkpt>
      <trkpt lat="43.35651" lon="1.29242">
        <ele>280.017</ele>
        <time>2020-06-01T19:31:00Z</time>
      </trkpt>
      <trkpt lat="43.35692" lon="1.29268">
        <ele>279.713</ele>
        <time>2020-06-01T19:30:40Z</time>
      </trkpt>
      <trkpt lat="43.35723" lon="1.29277">
        <ele>275.867</ele>
        <time>2020-06-01T19:30:20Z</time>
      </trkpt>
      <trkpt lat="43.35758" lon="1.29296">
        <ele>269.57</ele>
        <time>2020-06-01T19:30:00Z</time>
      </trkpt>
      <trkpt lat="43.35799" lon="1.29292">
        <ele>255.735</ele>
        <time>2020-10-31T18:02:45Z</time>
      </trkpt>
      <trkpt lat="43.35829" lon="1.29287">
        <ele>248.708</ele>
        <time>2020-10-31T18:02:25Z</time>
      </trkpt>
      <trkpt lat="43.35923" lon="1.29281">
        <ele>241.626</ele>
        <time>2020-06-01T19:28:40Z</time>
      </trkpt>
      <trkpt lat="43.36001" lon="1.29227">
        <ele>232.742</ele>
        <time>2020-06-01T19:28:00Z</time>
      </trkpt>
      <trkpt lat="43.36037" lon="1.29237">
        <ele>237.287</ele>
        <time>2020-06-01T19:27:40Z</time>
      </trkpt>
      <trkpt lat="43.3607" lon="1.29226">
        <ele>238.327</ele>
        <time>2020-06-01T19:27:20Z</time>
      </trkpt>
      <trkpt lat="43.36125" lon="1.29232">
        <ele>241.023</ele>
        <time>2020-06-01T19:27:00Z</time>
      </trkpt>
      <trkpt lat="43.36152" lon="1.29246">
        <ele>243.532</ele>
        <time>2020-06-01T19:26:40Z</time>
      </trkpt>
      <trkpt lat="43.36264" lon="1.29354">
        <ele>255.857</ele>
        <time>2020-06-01T19:26:20Z</time>
      </trkpt>
      <trkpt lat="43.36302" lon="1.29372">
        <ele>260.623</ele>
        <time>2020-06-01T19:26:00Z</time>
      </trkpt>
      <trkpt lat="43.3635" lon="1.29384">
        <ele>269.077</ele>
        <time>2020-06-01T19:25:40Z</time>
      </trkpt>
      <trkpt lat="43.36388" lon="1.29396">
        <ele>275.49</ele>
        <time>2020-06-01T19:25:20Z</time>
      </trkpt>
      <trkpt lat="43.36465" lon="1.29399">
        <ele>279.515</ele>
        <time>2020-06-01T19:25:00Z</time>
      </trkpt>
      <trkpt lat="43.36498" lon="1.29374">
        <ele>278.708</ele>
        <time>2020-06-01T19:24:40Z</time>
      </trkpt>
      <trkpt lat="43.36502" lon="1.29355">
        <ele>275.926</ele>
        <time>2020-06-01T19:24:20Z</time>
      </trkpt>
      <trkpt lat="43.36507" lon="1.29354">
        <ele>275.142</ele>
        <time>2020-06-01T19:24:00Z</time>
      </trkpt>
      <trkpt lat="43.36515" lon="1.29418">
        <ele>272.287</ele>
        <time>2020-06-01T19:23:40Z</time>
      </trkpt>
      <trkpt lat="43.36568" lon="1.29489">
        <ele>264.17</ele>
        <time>2020-06-01T19:23:20Z</time>
      </trkpt>
      <trkpt lat="43.36573" lon="1.29509">
        <ele>265.436</ele>
        <time>2020-06-01T19:23:00Z</time>
      </trkpt>
      <trkpt lat="43.36762" lon="1.29333">
        <ele>224.715</ele>
        <time>2020-06-01T19:22:00Z</time>
      </trkpt>
      <trkpt lat="43.36903" lon="1.29213">
        <ele>199.84</ele>
        <time>2020-06-01T19:20:20Z</time>
      </trkpt>
      <trkpt lat="43.3692" lon="1.29172">
        <ele>194.046</ele>
        <time>2020-06-01T19:20:00Z</time>
      </trkpt>
      <trkpt lat="43.36932" lon="1.29124">
        <ele>190.98</ele>
        <time>2020-06-01T19:19:40Z</time>
      </trkpt>
      <trkpt lat="43.36966" lon="1.28847">
        <ele>183.313</ele>
        <time>2020-06-01T19:19:20Z</time>
      </trkpt>
      <trkpt lat="43.36965" lon="1.288">
        <ele>176.658</ele>
        <time>2020-06-01T19:19:00Z</time>
      </trkpt>
      <trkpt lat="43.36972" lon="1.28779">
        <ele>174.208</ele>
        <time>2020-06-01T19:18:40Z</time>
      </trkpt>
      <trkpt lat="43.3699" lon="1.28771">
        <ele>175.103</ele>
        <time>2020-06-01T19:18:20Z</time>
      </trkpt>
      <trkpt lat="43.37005" lon="1.28744">
        <ele>173.021</ele>
        <time>2020-06-01T19:18:00Z</time>
      </trkpt>
      <trkpt lat="43.37027" lon="1.2873">
        <ele>172.811</ele>
        <time>2020-06-01T19:17:40Z</time>
      </trkpt>
      <trkpt lat="43.37169" lon="1.28723">
        <ele>172.091</ele>
        <time>2020-06-01T19:17:20Z</time>
      </trkpt>
      <trkpt lat="43.37219" lon="1.28727">
        <ele>172.217</ele>
        <time>2020-06-01T19:17:00Z</time>
      </trkpt>
      <trkpt lat="43.37311" lon="1.28745">
        <ele>171.756</ele>
        <time>2020-06-01T19:16:40Z</time>
      </trkpt>
      <trkpt lat="43.3737" lon="1.28782">
        <ele>171.731</ele>
        <time>2020-06-01T19:16:20Z</time>
      </trkpt>
      <trkpt lat="43.37531" lon="1.28926">
        <ele>172.277</ele>
        <time>2020-06-01T19:16:00Z</time>
      </trkpt>
      <trkpt lat="43.37559" lon="1.2897">
        <ele>172.751</ele>
        <time>2020-06-01T19:15:40Z</time>
      </trkpt>
      <trkpt lat="43.37585" lon="1.29017">
        <ele>173.564</ele>
        <time>2020-06-01T19:15:20Z</time>
      </trkpt>
      <trkpt lat="43.37558" lon="1.29089">
        <ele>180.239</ele>
        <time>2020-10-31T17:48:05Z</time>
      </trkpt>
      <trkpt lat="43.37613" lon="1.29148">
        <ele>179.908</ele>
        <time>2020-10-31T17:47:45Z</time>
      </trkpt>
      <trkpt lat="43.37609" lon="1.29191">
        <ele>180.908</ele>
        <time>2020-10-31T17:47:25Z</time>
      </trkpt>
      <trkpt lat="43.37591" lon="1.29206">
        <ele>181.326</ele>
        <time>2020-10-31T17:47:05Z</time>
      </trkpt>
      <trkpt lat="43.37583" lon="1.29222">
        <ele>182.025</ele>
        <time>2020-10-31T17:46:45Z</time>
      </trkpt>
      <trkpt lat="43.37563" lon="1.29306">
        <ele>183.096</ele>
        <time>2020-10-31T17:46:25Z</time>
      </trkpt>
      <trkpt lat="43.37643" lon="1.29298">
        <ele>181.062</ele>
        <time>2020-10-31T17:46:05Z</time>
      </trkpt>
      <trkpt lat="43.37707" lon="1.29332">
        <ele>180.011</ele>
        <time>2020-10-31T17:45:45Z</time>
      </trkpt>
      <trkpt lat="43.37766" lon="1.29354">
        <ele>176.036</ele>
        <time>2020-10-31T17:45:25Z</time>
      </trkpt>
      <trkpt lat="43.37779" lon="1.29372">
        <ele>174.872</ele>
        <time>2020-06-01T19:10:40Z</time>
      </trkpt>
      <trkpt lat="43.37818" lon="1.29513">
        <ele>174.946</ele>
        <time>2020-06-01T19:10:20Z</time>
      </trkpt>
      <trkpt lat="43.37879" lon="1.2983">
        <ele>173.989</ele>
        <time>2020-06-01T19:09:20Z</time>
      </trkpt>
      <trkpt lat="43.37895" lon="1.29875">
        <ele>173.344</ele>
        <time>2020-06-01T19:09:00Z</time>
      </trkpt>
      <trkpt lat="43.37914" lon="1.29962">
        <ele>182.608</ele>
        <time>2020-06-01T19:08:40Z</time>
      </trkpt>
      <trkpt lat="43.3792" lon="1.3001">
        <ele>188.426</ele>
        <time>2020-06-01T19:08:20Z</time>
      </trkpt>
      <trkpt lat="43.37914" lon="1.3005">
        <ele>194.133</ele>
        <time>2020-06-01T19:08:00Z</time>
      </trkpt>
      <trkpt lat="43.37898" lon="1.30081">
        <ele>203.278</ele>
        <time>2020-06-01T19:07:40Z</time>
      </trkpt>
      <trkpt lat="43.37913" lon="1.30117">
        <ele>206.215</ele>
        <time>2020-06-01T19:06:40Z</time>
      </trkpt>
      <trkpt lat="43.37888" lon="1.30115">
        <ele>212.871</ele>
        <time>2020-06-01T19:06:20Z</time>
      </trkpt>
      <trkpt lat="43.37881" lon="1.30145">
        <ele>221.06</ele>
        <time>2020-06-01T19:06:00Z</time>
      </trkpt>
      <trkpt lat="43.37849" lon="1.30181">
        <ele>237.975</ele>
        <time>2020-06-01T19:05:40Z</time>
      </trkpt>
      <trkpt lat="43.37837" lon="1.30247">
        <ele>242.091</ele>
        <time>2020-06-01T19:05:20Z</time>
      </trkpt>
      <trkpt lat="43.37812" lon="1.304">
        <ele>241.735</ele>
        <time>2020-06-01T19:05:00Z</time>
      </trkpt>
      <trkpt lat="43.37797" lon="1.30582">
        <ele>238.128</ele>
        <time>2020-06-01T19:04:40Z</time>
      </trkpt>
      <trkpt lat="43.37804" lon="1.30628">
        <ele>237.443</ele>
        <time>2020-06-01T19:04:20Z</time>
      </trkpt>
      <trkpt lat="43.37841" lon="1.30631">
        <ele>239.308</ele>
        <time>2020-06-01T19:04:00Z</time>
      </trkpt>
      <trkpt lat="43.3796" lon="1.30682">
        <ele>246.814</ele>
        <time>2020-06-01T19:03:40Z</time>
      </trkpt>
      <trkpt lat="43.3811" lon="1.30708">
        <ele>263.468</ele>
        <time>2020-06-01T19:03:20Z</time>
      </trkpt>
      <trkpt lat="43.38161" lon="1.30842">
        <ele>275.965</ele>
        <time>2020-06-01T19:03:00Z</time>
      </trkpt>
      <trkpt lat="43.38193" lon="1.30886">
        <ele>277.055</ele>
        <time>2020-06-01T19:02:40Z</time>
      </trkpt>
      <trkpt lat="43.38234" lon="1.30898">
        <ele>274.441</ele>
        <time>2020-06-01T19:02:20Z</time>
      </trkpt>
      <trkpt lat="43.38338" lon="1.30918">
        <ele>265.39</ele>
        <time>2020-06-01T19:02:00Z</time>
      </trkpt>
      <trkpt lat="43.38344" lon="1.30936">
        <ele>264.265</ele>
        <time>2020-06-01T19:01:40Z</time>
      </trkpt>
      <trkpt lat="43.38344" lon="1.31064">
        <ele>264.211</ele>
        <time>2020-06-01T19:01:20Z</time>
      </trkpt>
      <trkpt lat="43.38409" lon="1.31086">
        <ele>253.045</ele>
        <time>2020-06-01T19:01:00Z</time>
      </trkpt>
      <trkpt lat="43.38506" lon="1.31088">
        <ele>238.3</ele>
      </trkpt>
      <trkpt lat="43.38651" lon="1.31103">
        <ele>227.7</ele>
      </trkpt>
      <trkpt lat="43.38676" lon="1.31107">
        <ele>227.1</ele>
      </trkpt>
      <trkpt lat="43.3865" lon="1.31354">
        <ele>223.6</ele>
      </trkpt>
      <trkpt lat="43.38627" lon="1.31489">
        <ele>221.6</ele>
      </trkpt>
      <trkpt lat="43.38613" lon="1.31598">
        <ele>220.5</ele>
      </trkpt>
      <trkpt lat="43.38612" lon="1.31616">
        <ele>219.8</ele>
      </trkpt>
      <trkpt lat="43.38562" lon="1.31862">
        <ele>215</ele>
      </trkpt>
      <trkpt lat="43.38559" lon="1.31891">
        <ele>215.1</ele>
      </trkpt>
      <trkpt lat="43.3856" lon="1.31929">
        <ele>215.4</ele>
      </trkpt>
      <trkpt lat="43.38584" lon="1.32254">
        <ele>228.2</ele>
      </trkpt>
      <trkpt lat="43.38595" lon="1.3235">
        <ele>228.1</ele>
      </trkpt>
      <trkpt lat="43.38598" lon="1.3239">
        <ele>228.1</ele>
      </trkpt>
      <trkpt lat="43.38601" lon="1.32555">
        <ele>239.1</ele>
      </trkpt>
      <trkpt lat="43.38597" lon="1.32654">
        <ele>245.2</ele>
      </trkpt>
      <trkpt lat="43.38583" lon="1.32848">
        <ele>252.9</ele>
      </trkpt>
      <trkpt lat="43.38579" lon="1.32872">
        <ele>252.3</ele>
      </trkpt>
      <trkpt lat="43.38526" lon="1.33079">
        <ele>248.1</ele>
      </trkpt>
      <trkpt lat="43.38512" lon="1.33138">
        <ele>247</ele>
      </trkpt>
      <trkpt lat="43.385" lon="1.33202">
        <ele>246</ele>
      </trkpt>
      <trkpt lat="43.38495" lon="1.33251">
        <ele>244.6</ele>
      </trkpt>
      <trkpt lat="43.38488" lon="1.33421">
        <ele>240.1</ele>
      </trkpt>
      <trkpt lat="43.38485" lon="1.33447">
        <ele>239.4</ele>
      </trkpt>
      <trkpt lat="43.38479" lon="1.33481">
        <ele>238.2</ele>
      </trkpt>
      <trkpt lat="43.38466" lon="1.33523">
        <ele>237.6</ele>
      </trkpt>
      <trkpt lat="43.3845" lon="1.33567">
        <ele>236.1</ele>
      </trkpt>
      <trkpt lat="43.38377" lon="1.33749">
        <ele>228.6</ele>
      </trkpt>
      <trkpt lat="43.38328" lon="1.33847">
        <ele>224.2</ele>
      </trkpt>
      <trkpt lat="43.38253" lon="1.33972">
        <ele>215.2</ele>
      </trkpt>
      <trkpt lat="43.38246" lon="1.33988">
        <ele>215</ele>
      </trkpt>
      <trkpt lat="43.38239" lon="1.3402">
        <ele>213.9</ele>
      </trkpt>
      <trkpt lat="43.38238" lon="1.34033">
        <ele>213.3</ele>
      </trkpt>
      <trkpt lat="43.38239" lon="1.34062">
        <ele>211.4</ele>
      </trkpt>
      <trkpt lat="43.38244" lon="1.34093">
        <ele>208.6</ele>
      </trkpt>
      <trkpt lat="43.38257" lon="1.34141">
        <ele>205.9</ele>
      </trkpt>
      <trkpt lat="43.38263" lon="1.34173">
        <ele>203.7</ele>
      </trkpt>
      <trkpt lat="43.38262" lon="1.34201">
        <ele>202.3</ele>
      </trkpt>
      <trkpt lat="43.38255" lon="1.34259">
        <ele>199.3</ele>
      </trkpt>
      <trkpt lat="43.38251" lon="1.34283">
        <ele>197.8</ele>
      </trkpt>
      <trkpt lat="43.38239" lon="1.34321">
        <ele>197</ele>
      </trkpt>
      <trkpt lat="43.38215" lon="1.34372">
        <ele>194.9</ele>
      </trkpt>
      <trkpt lat="43.38186" lon="1.34427">
        <ele>191.8</ele>
      </trkpt>
      <trkpt lat="43.38181" lon="1.34446">
        <ele>191</ele>
      </trkpt>
      <trkpt lat="43.38181" lon="1.34455">
        <ele>190.5</ele>
      </trkpt>
      <trkpt lat="43.382" lon="1.34487">
        <ele>190.4</ele>
      </trkpt>
      <trkpt lat="43.38234" lon="1.34563">
        <ele>189</ele>
      </trkpt>
      <trkpt lat="43.38264" lon="1.3462">
        <ele>188.2</ele>
      </trkpt>
      <trkpt lat="43.38303" lon="1.34675">
        <ele>187.6</ele>
      </trkpt>
      <trkpt lat="43.38328" lon="1.34701">
        <ele>187.6</ele>
      </trkpt>
      <trkpt lat="43.38362" lon="1.34728">
        <ele>187.8</ele>
      </trkpt>
      <trkpt lat="43.38386" lon="1.34741">
        <ele>187.9</ele>
      </trkpt>
      <trkpt lat="43.38413" lon="1.34751">
        <ele>187.9</ele>
      </trkpt>
      <trkpt lat="43.38506" lon="1.34777">
        <ele>188</ele>
      </trkpt>
      <trkpt lat="43.38548" lon="1.34784">
        <ele>188.5</ele>
      </trkpt>
      <trkpt lat="43.38562" lon="1.34784">
        <ele>188.8</ele>
      </trkpt>
      <trkpt lat="43.38564" lon="1.34789">
        <ele>188.6</ele>
      </trkpt>
      <trkpt lat="43.38565" lon="1.348">
        <ele>188.2</ele>
      </trkpt>
      <trkpt lat="43.3856" lon="1.34811">
        <ele>187.8</ele>
      </trkpt>
      <trkpt lat="43.38398" lon="1.34983">
        <ele>185</ele>
      </trkpt>
      <trkpt lat="43.38365" lon="1.35027">
        <ele>184.9</ele>
      </trkpt>
      <trkpt lat="43.38267" lon="1.35168">
        <ele>183</ele>
      </trkpt>
      <trkpt lat="43.38253" lon="1.35183">
        <ele>183</ele>
      </trkpt>
      <trkpt lat="43.38237" lon="1.35195">
        <ele>183</ele>
      </trkpt>
      <trkpt lat="43.38217" lon="1.35206">
        <ele>183.2</ele>
      </trkpt>
      <trkpt lat="43.38201" lon="1.35219">
        <ele>182.5</ele>
      </trkpt>
      <trkpt lat="43.38144" lon="1.35278">
        <ele>182.3</ele>
      </trkpt>
      <trkpt lat="43.38123" lon="1.35304">
        <ele>184.3</ele>
      </trkpt>
      <trkpt lat="43.38112" lon="1.35325">
        <ele>184</ele>
      </trkpt>
      <trkpt lat="43.38103" lon="1.35352">
        <ele>183.7</ele>
      </trkpt>
      <trkpt lat="43.38099" lon="1.35372">
        <ele>183.3</ele>
      </trkpt>
      <trkpt lat="43.38086" lon="1.35535">
        <ele>186</ele>
      </trkpt>
    </trkseg>
  </trk>
</gpx>